<?xml version='1.0' encoding='UTF-8'?>
<gpx version="1.1" creator="https://www.komoot.de" xmlns="http://www.topografix.com/GPX/1/1" xmlns:xsi="http://www.w3.org/2001/XMLSchema-instance" xsi:schemaLocation="http://www.topografix.com/GPX/1/1 http://www.topografix.com/GPX/1/1/gpx.xsd">
  <metadata>
    <name>DVV Holzbunge - Hüttener Berge</name>
    <author>
      <link href="https://www.komoot.de">
        <text>komoot</text>
        <type>text/html</type>
      </link>
    </author>
  </metadata>
  <trk>
    <name>DVV Holzbunge - Hüttener Berge</name>
    <trkseg>
      <trkpt lat="54.379694" lon="9.707165">
        <ele>22.737130</ele>
        <time>2021-04-14T13:07:31.000Z</time>
      </trkpt>
      <trkpt lat="54.379690" lon="9.707177">
        <ele>22.737130</ele>
        <time>2021-04-14T13:07:32.000Z</time>
      </trkpt>
      <trkpt lat="54.379655" lon="9.707224">
        <ele>22.737130</ele>
        <time>2021-04-14T13:07:37.000Z</time>
      </trkpt>
      <trkpt lat="54.379639" lon="9.707252">
        <ele>22.737130</ele>
        <time>2021-04-14T13:07:39.000Z</time>
      </trkpt>
      <trkpt lat="54.379560" lon="9.707345">
        <ele>22.737130</ele>
        <time>2021-04-14T13:07:46.000Z</time>
      </trkpt>
      <trkpt lat="54.379470" lon="9.707324">
        <ele>22.737130</ele>
        <time>2021-04-14T13:07:51.000Z</time>
      </trkpt>
      <trkpt lat="54.379366" lon="9.707196">
        <ele>22.737130</ele>
        <time>2021-04-14T13:07:58.000Z</time>
      </trkpt>
      <trkpt lat="54.379288" lon="9.707105">
        <ele>22.737130</ele>
        <time>2021-04-14T13:08:03.000Z</time>
      </trkpt>
      <trkpt lat="54.379229" lon="9.707036">
        <ele>22.737130</ele>
        <time>2021-04-14T13:08:07.000Z</time>
      </trkpt>
      <trkpt lat="54.379163" lon="9.706940">
        <ele>22.737130</ele>
        <time>2021-04-14T13:08:12.000Z</time>
      </trkpt>
      <trkpt lat="54.379125" lon="9.706891">
        <ele>22.737130</ele>
        <time>2021-04-14T13:08:15.000Z</time>
      </trkpt>
      <trkpt lat="54.379114" lon="9.706873">
        <ele>22.737130</ele>
        <time>2021-04-14T13:08:16.000Z</time>
      </trkpt>
      <trkpt lat="54.379056" lon="9.706803">
        <ele>22.737130</ele>
        <time>2021-04-14T13:08:20.000Z</time>
      </trkpt>
      <trkpt lat="54.378912" lon="9.706664">
        <ele>22.859256</ele>
        <time>2021-04-14T13:08:29.000Z</time>
      </trkpt>
      <trkpt lat="54.378797" lon="9.706578">
        <ele>23.227668</ele>
        <time>2021-04-14T13:08:37.000Z</time>
      </trkpt>
      <trkpt lat="54.378658" lon="9.706428">
        <ele>23.709865</ele>
        <time>2021-04-14T13:08:46.000Z</time>
      </trkpt>
      <trkpt lat="54.378567" lon="9.706302">
        <ele>24.053222</ele>
        <time>2021-04-14T13:08:53.000Z</time>
      </trkpt>
      <trkpt lat="54.378543" lon="9.706262">
        <ele>24.151461</ele>
        <time>2021-04-14T13:08:55.000Z</time>
      </trkpt>
      <trkpt lat="54.378525" lon="9.706239">
        <ele>24.217362</ele>
        <time>2021-04-14T13:08:56.000Z</time>
      </trkpt>
      <trkpt lat="54.378461" lon="9.706155">
        <ele>24.453968</ele>
        <time>2021-04-14T13:09:00.000Z</time>
      </trkpt>
      <trkpt lat="54.378435" lon="9.706116">
        <ele>24.555370</ele>
        <time>2021-04-14T13:09:02.000Z</time>
      </trkpt>
      <trkpt lat="54.378413" lon="9.706084">
        <ele>24.640056</ele>
        <time>2021-04-14T13:09:04.000Z</time>
      </trkpt>
      <trkpt lat="54.378316" lon="9.705971">
        <ele>24.984342</ele>
        <time>2021-04-14T13:09:11.000Z</time>
      </trkpt>
      <trkpt lat="54.378301" lon="9.705953">
        <ele>25.038092</ele>
        <time>2021-04-14T13:09:12.000Z</time>
      </trkpt>
      <trkpt lat="54.378203" lon="9.705858">
        <ele>25.368636</ele>
        <time>2021-04-14T13:09:18.000Z</time>
      </trkpt>
      <trkpt lat="54.378188" lon="9.705843">
        <ele>25.419620</ele>
        <time>2021-04-14T13:09:19.000Z</time>
      </trkpt>
      <trkpt lat="54.378147" lon="9.705793">
        <ele>25.567326</ele>
        <time>2021-04-14T13:09:22.000Z</time>
      </trkpt>
      <trkpt lat="54.378085" lon="9.705697">
        <ele>25.812539</ele>
        <time>2021-04-14T13:09:27.000Z</time>
      </trkpt>
      <trkpt lat="54.378030" lon="9.705623">
        <ele>26.017771</ele>
        <time>2021-04-14T13:09:31.000Z</time>
      </trkpt>
      <trkpt lat="54.377888" lon="9.705500">
        <ele>26.484909</ele>
        <time>2021-04-14T13:09:39.000Z</time>
      </trkpt>
      <trkpt lat="54.377789" lon="9.705371">
        <ele>26.849938</ele>
        <time>2021-04-14T13:09:47.000Z</time>
      </trkpt>
      <trkpt lat="54.377774" lon="9.705344">
        <ele>26.913768</ele>
        <time>2021-04-14T13:09:49.000Z</time>
      </trkpt>
      <trkpt lat="54.377773" lon="9.705328">
        <ele>26.941296</ele>
        <time>2021-04-14T13:09:50.000Z</time>
      </trkpt>
      <trkpt lat="54.377775" lon="9.705236">
        <ele>27.098788</ele>
        <time>2021-04-14T13:09:55.000Z</time>
      </trkpt>
      <trkpt lat="54.377789" lon="9.705165">
        <ele>27.227017</ele>
        <time>2021-04-14T13:09:59.000Z</time>
      </trkpt>
      <trkpt lat="54.377789" lon="9.705141">
        <ele>27.268073</ele>
        <time>2021-04-14T13:10:00.000Z</time>
      </trkpt>
      <trkpt lat="54.377781" lon="9.705090">
        <ele>27.358426</ele>
        <time>2021-04-14T13:10:02.000Z</time>
      </trkpt>
      <trkpt lat="54.377785" lon="9.705062">
        <ele>27.407745</ele>
        <time>2021-04-14T13:10:04.000Z</time>
      </trkpt>
      <trkpt lat="54.377802" lon="9.705005">
        <ele>27.517294</ele>
        <time>2021-04-14T13:10:07.000Z</time>
      </trkpt>
      <trkpt lat="54.377832" lon="9.704911">
        <ele>27.700656</ele>
        <time>2021-04-14T13:10:11.000Z</time>
      </trkpt>
      <trkpt lat="54.377856" lon="9.704834">
        <ele>27.850052</ele>
        <time>2021-04-14T13:10:14.000Z</time>
      </trkpt>
      <trkpt lat="54.377872" lon="9.704787">
        <ele>27.943180</ele>
        <time>2021-04-14T13:10:16.000Z</time>
      </trkpt>
      <trkpt lat="54.377911" lon="9.704651">
        <ele>28.155159</ele>
        <time>2021-04-14T13:10:21.000Z</time>
      </trkpt>
      <trkpt lat="54.377918" lon="9.704624">
        <ele>28.192608</ele>
        <time>2021-04-14T13:10:22.000Z</time>
      </trkpt>
      <trkpt lat="54.377942" lon="9.704472">
        <ele>28.392164</ele>
        <time>2021-04-14T13:10:28.000Z</time>
      </trkpt>
      <trkpt lat="54.377952" lon="9.704384">
        <ele>28.505775</ele>
        <time>2021-04-14T13:10:31.000Z</time>
      </trkpt>
      <trkpt lat="54.377967" lon="9.704264">
        <ele>28.661293</ele>
        <time>2021-04-14T13:10:35.000Z</time>
      </trkpt>
      <trkpt lat="54.377999" lon="9.704161">
        <ele>28.809215</ele>
        <time>2021-04-14T13:10:39.000Z</time>
      </trkpt>
      <trkpt lat="54.378036" lon="9.704012">
        <ele>29.014461</ele>
        <time>2021-04-14T13:10:44.000Z</time>
      </trkpt>
      <trkpt lat="54.378075" lon="9.703959">
        <ele>29.122671</ele>
        <time>2021-04-14T13:10:47.000Z</time>
      </trkpt>
      <trkpt lat="54.378145" lon="9.703902">
        <ele>29.291220</ele>
        <time>2021-04-14T13:10:51.000Z</time>
      </trkpt>
      <trkpt lat="54.378202" lon="9.703841">
        <ele>29.437345</ele>
        <time>2021-04-14T13:10:55.000Z</time>
      </trkpt>
      <trkpt lat="54.378267" lon="9.703781">
        <ele>29.597899</ele>
        <time>2021-04-14T13:11:00.000Z</time>
      </trkpt>
      <trkpt lat="54.378335" lon="9.703718">
        <ele>29.766002</ele>
        <time>2021-04-14T13:11:05.000Z</time>
      </trkpt>
      <trkpt lat="54.378415" lon="9.703646">
        <ele>29.962511</ele>
        <time>2021-04-14T13:11:10.000Z</time>
      </trkpt>
      <trkpt lat="54.378488" lon="9.703563">
        <ele>30.152994</ele>
        <time>2021-04-14T13:11:15.000Z</time>
      </trkpt>
      <trkpt lat="54.378501" lon="9.703544">
        <ele>30.190136</ele>
        <time>2021-04-14T13:11:16.000Z</time>
      </trkpt>
      <trkpt lat="54.378589" lon="9.703453">
        <ele>30.413629</ele>
        <time>2021-04-14T13:11:22.000Z</time>
      </trkpt>
      <trkpt lat="54.378692" lon="9.703325">
        <ele>30.690250</ele>
        <time>2021-04-14T13:11:29.000Z</time>
      </trkpt>
      <trkpt lat="54.378764" lon="9.703254">
        <ele>30.870889</ele>
        <time>2021-04-14T13:11:34.000Z</time>
      </trkpt>
      <trkpt lat="54.378827" lon="9.703178">
        <ele>31.038399</ele>
        <time>2021-04-14T13:11:38.000Z</time>
      </trkpt>
      <trkpt lat="54.378877" lon="9.703131">
        <ele>31.162413</ele>
        <time>2021-04-14T13:11:41.000Z</time>
      </trkpt>
      <trkpt lat="54.378947" lon="9.703068">
        <ele>31.334357</ele>
        <time>2021-04-14T13:11:46.000Z</time>
      </trkpt>
      <trkpt lat="54.379008" lon="9.702903">
        <ele>31.581992</ele>
        <time>2021-04-14T13:11:53.000Z</time>
      </trkpt>
      <trkpt lat="54.379018" lon="9.702886">
        <ele>31.612607</ele>
        <time>2021-04-14T13:11:54.000Z</time>
      </trkpt>
      <trkpt lat="54.379079" lon="9.702823">
        <ele>31.767476</ele>
        <time>2021-04-14T13:11:58.000Z</time>
      </trkpt>
      <trkpt lat="54.379094" lon="9.702746">
        <ele>31.870356</ele>
        <time>2021-04-14T13:12:00.000Z</time>
      </trkpt>
      <trkpt lat="54.379182" lon="9.702618">
        <ele>32.033517</ele>
        <time>2021-04-14T13:12:07.000Z</time>
      </trkpt>
      <trkpt lat="54.379280" lon="9.702499">
        <ele>32.172942</ele>
        <time>2021-04-14T13:12:13.000Z</time>
      </trkpt>
      <trkpt lat="54.379304" lon="9.702459">
        <ele>32.211794</ele>
        <time>2021-04-14T13:12:15.000Z</time>
      </trkpt>
      <trkpt lat="54.379332" lon="9.702420">
        <ele>32.253674</ele>
        <time>2021-04-14T13:12:17.000Z</time>
      </trkpt>
      <trkpt lat="54.379388" lon="9.702352">
        <ele>32.333345</ele>
        <time>2021-04-14T13:12:21.000Z</time>
      </trkpt>
      <trkpt lat="54.379402" lon="9.702333">
        <ele>32.354074</ele>
        <time>2021-04-14T13:12:22.000Z</time>
      </trkpt>
      <trkpt lat="54.379427" lon="9.702281">
        <ele>32.399690</ele>
        <time>2021-04-14T13:12:24.000Z</time>
      </trkpt>
      <trkpt lat="54.379450" lon="9.702241">
        <ele>32.437716</ele>
        <time>2021-04-14T13:12:26.000Z</time>
      </trkpt>
      <trkpt lat="54.379499" lon="9.702159">
        <ele>32.517196</ele>
        <time>2021-04-14T13:12:30.000Z</time>
      </trkpt>
      <trkpt lat="54.379540" lon="9.702089">
        <ele>32.584357</ele>
        <time>2021-04-14T13:12:33.000Z</time>
      </trkpt>
      <trkpt lat="54.379554" lon="9.702070">
        <ele>32.605086</ele>
        <time>2021-04-14T13:12:34.000Z</time>
      </trkpt>
      <trkpt lat="54.379567" lon="9.702054">
        <ele>32.623665</ele>
        <time>2021-04-14T13:12:35.000Z</time>
      </trkpt>
      <trkpt lat="54.379579" lon="9.702033">
        <ele>32.643568</ele>
        <time>2021-04-14T13:12:36.000Z</time>
      </trkpt>
      <trkpt lat="54.379655" lon="9.701939">
        <ele>32.752367</ele>
        <time>2021-04-14T13:12:42.000Z</time>
      </trkpt>
      <trkpt lat="54.379733" lon="9.701828">
        <ele>32.870043</ele>
        <time>2021-04-14T13:12:48.000Z</time>
      </trkpt>
      <trkpt lat="54.379758" lon="9.701782">
        <ele>32.912607</ele>
        <time>2021-04-14T13:12:50.000Z</time>
      </trkpt>
      <trkpt lat="54.379830" lon="9.701648">
        <ele>33.035945</ele>
        <time>2021-04-14T13:12:57.000Z</time>
      </trkpt>
      <trkpt lat="54.379867" lon="9.701605">
        <ele>33.087843</ele>
        <time>2021-04-14T13:13:00.000Z</time>
      </trkpt>
      <trkpt lat="54.379919" lon="9.701539">
        <ele>33.162956</ele>
        <time>2021-04-14T13:13:04.000Z</time>
      </trkpt>
      <trkpt lat="54.379926" lon="9.701521">
        <ele>33.177598</ele>
        <time>2021-04-14T13:13:05.000Z</time>
      </trkpt>
      <trkpt lat="54.379928" lon="9.701482">
        <ele>33.204084</ele>
        <time>2021-04-14T13:13:07.000Z</time>
      </trkpt>
      <trkpt lat="54.379896" lon="9.701406">
        <ele>33.267527</ele>
        <time>2021-04-14T13:13:10.000Z</time>
      </trkpt>
      <trkpt lat="54.379884" lon="9.701381">
        <ele>33.289444</ele>
        <time>2021-04-14T13:13:11.000Z</time>
      </trkpt>
      <trkpt lat="54.379859" lon="9.701338">
        <ele>33.330547</ele>
        <time>2021-04-14T13:13:13.000Z</time>
      </trkpt>
      <trkpt lat="54.379785" lon="9.701232">
        <ele>33.442488</ele>
        <time>2021-04-14T13:13:18.000Z</time>
      </trkpt>
      <trkpt lat="54.379747" lon="9.701175">
        <ele>33.501099</ele>
        <time>2021-04-14T13:13:21.000Z</time>
      </trkpt>
      <trkpt lat="54.379714" lon="9.701130">
        <ele>33.550049</ele>
        <time>2021-04-14T13:13:24.000Z</time>
      </trkpt>
      <trkpt lat="54.379669" lon="9.701065">
        <ele>33.618356</ele>
        <time>2021-04-14T13:13:28.000Z</time>
      </trkpt>
      <trkpt lat="54.379642" lon="9.701045">
        <ele>33.652513</ele>
        <time>2021-04-14T13:13:30.000Z</time>
      </trkpt>
      <trkpt lat="54.379628" lon="9.701034">
        <ele>33.670397</ele>
        <time>2021-04-14T13:13:31.000Z</time>
      </trkpt>
      <trkpt lat="54.379614" lon="9.701018">
        <ele>33.689932</ele>
        <time>2021-04-14T13:13:32.000Z</time>
      </trkpt>
      <trkpt lat="54.379565" lon="9.700939">
        <ele>33.768008</ele>
        <time>2021-04-14T13:13:36.000Z</time>
      </trkpt>
      <trkpt lat="54.379536" lon="9.700913">
        <ele>33.806009</ele>
        <time>2021-04-14T13:13:38.000Z</time>
      </trkpt>
      <trkpt lat="54.379521" lon="9.700903">
        <ele>33.824700</ele>
        <time>2021-04-14T13:13:39.000Z</time>
      </trkpt>
      <trkpt lat="54.379487" lon="9.700882">
        <ele>33.866671</ele>
        <time>2021-04-14T13:13:41.000Z</time>
      </trkpt>
      <trkpt lat="54.379434" lon="9.700852">
        <ele>33.931493</ele>
        <time>2021-04-14T13:13:44.000Z</time>
      </trkpt>
      <trkpt lat="54.379417" lon="9.700841">
        <ele>33.952596</ele>
        <time>2021-04-14T13:13:45.000Z</time>
      </trkpt>
      <trkpt lat="54.379366" lon="9.700805">
        <ele>34.016647</ele>
        <time>2021-04-14T13:13:48.000Z</time>
      </trkpt>
      <trkpt lat="54.379337" lon="9.700776">
        <ele>34.072966</ele>
        <time>2021-04-14T13:13:50.000Z</time>
      </trkpt>
      <trkpt lat="54.379295" lon="9.700734">
        <ele>34.158740</ele>
        <time>2021-04-14T13:13:53.000Z</time>
      </trkpt>
      <trkpt lat="54.379233" lon="9.700668">
        <ele>34.287477</ele>
        <time>2021-04-14T13:13:57.000Z</time>
      </trkpt>
      <trkpt lat="54.379220" lon="9.700650">
        <ele>34.316949</ele>
        <time>2021-04-14T13:13:58.000Z</time>
      </trkpt>
      <trkpt lat="54.379208" lon="9.700630">
        <ele>34.346463</ele>
        <time>2021-04-14T13:13:59.000Z</time>
      </trkpt>
      <trkpt lat="54.379184" lon="9.700584">
        <ele>34.409939</ele>
        <time>2021-04-14T13:14:01.000Z</time>
      </trkpt>
      <trkpt lat="54.379147" lon="9.700519">
        <ele>34.503357</ele>
        <time>2021-04-14T13:14:04.000Z</time>
      </trkpt>
      <trkpt lat="54.379133" lon="9.700500">
        <ele>34.534850</ele>
        <time>2021-04-14T13:14:05.000Z</time>
      </trkpt>
      <trkpt lat="54.379032" lon="9.700362">
        <ele>34.762639</ele>
        <time>2021-04-14T13:14:12.000Z</time>
      </trkpt>
      <trkpt lat="54.379011" lon="9.700317">
        <ele>34.821907</ele>
        <time>2021-04-14T13:14:14.000Z</time>
      </trkpt>
      <trkpt lat="54.378934" lon="9.700241">
        <ele>34.978645</ele>
        <time>2021-04-14T13:14:19.000Z</time>
      </trkpt>
      <trkpt lat="54.378841" lon="9.700131">
        <ele>35.177941</ele>
        <time>2021-04-14T13:14:26.000Z</time>
      </trkpt>
      <trkpt lat="54.378828" lon="9.699948">
        <ele>35.367429</ele>
        <time>2021-04-14T13:14:32.000Z</time>
      </trkpt>
      <trkpt lat="54.378836" lon="9.699879">
        <ele>35.439741</ele>
        <time>2021-04-14T13:14:34.000Z</time>
      </trkpt>
      <trkpt lat="54.378873" lon="9.699766">
        <ele>35.572982</ele>
        <time>2021-04-14T13:14:38.000Z</time>
      </trkpt>
      <trkpt lat="54.378896" lon="9.699720">
        <ele>35.635295</ele>
        <time>2021-04-14T13:14:40.000Z</time>
      </trkpt>
      <trkpt lat="54.378916" lon="9.699682">
        <ele>35.687937</ele>
        <time>2021-04-14T13:14:42.000Z</time>
      </trkpt>
      <trkpt lat="54.378923" lon="9.699664">
        <ele>35.710183</ele>
        <time>2021-04-14T13:14:43.000Z</time>
      </trkpt>
      <trkpt lat="54.378951" lon="9.699568">
        <ele>35.820536</ele>
        <time>2021-04-14T13:14:47.000Z</time>
      </trkpt>
      <trkpt lat="54.378974" lon="9.699434">
        <ele>35.964122</ele>
        <time>2021-04-14T13:14:52.000Z</time>
      </trkpt>
      <trkpt lat="54.378988" lon="9.699378">
        <ele>36.026759</ele>
        <time>2021-04-14T13:14:54.000Z</time>
      </trkpt>
      <trkpt lat="54.379045" lon="9.699088">
        <ele>36.341345</ele>
        <time>2021-04-14T13:15:03.000Z</time>
      </trkpt>
      <trkpt lat="54.379093" lon="9.698887">
        <ele>36.564630</ele>
        <time>2021-04-14T13:15:10.000Z</time>
      </trkpt>
      <trkpt lat="54.379139" lon="9.698661">
        <ele>36.810695</ele>
        <time>2021-04-14T13:15:18.000Z</time>
      </trkpt>
      <trkpt lat="54.379143" lon="9.698637">
        <ele>36.836352</ele>
        <time>2021-04-14T13:15:19.000Z</time>
      </trkpt>
      <trkpt lat="54.379183" lon="9.698482">
        <ele>37.010604</ele>
        <time>2021-04-14T13:15:25.000Z</time>
      </trkpt>
      <trkpt lat="54.379194" lon="9.698426">
        <ele>37.071347</ele>
        <time>2021-04-14T13:15:27.000Z</time>
      </trkpt>
      <trkpt lat="54.379199" lon="9.698396">
        <ele>37.103420</ele>
        <time>2021-04-14T13:15:28.000Z</time>
      </trkpt>
      <trkpt lat="54.379202" lon="9.698265">
        <ele>37.194899</ele>
        <time>2021-04-14T13:15:32.000Z</time>
      </trkpt>
      <trkpt lat="54.379203" lon="9.698157">
        <ele>37.190904</ele>
        <time>2021-04-14T13:15:36.000Z</time>
      </trkpt>
      <trkpt lat="54.379192" lon="9.698023">
        <ele>37.185900</ele>
        <time>2021-04-14T13:15:41.000Z</time>
      </trkpt>
      <trkpt lat="54.379188" lon="9.697998">
        <ele>37.184941</ele>
        <time>2021-04-14T13:15:42.000Z</time>
      </trkpt>
      <trkpt lat="54.379169" lon="9.697933">
        <ele>37.182252</ele>
        <time>2021-04-14T13:15:45.000Z</time>
      </trkpt>
      <trkpt lat="54.379156" lon="9.697843">
        <ele>37.178823</ele>
        <time>2021-04-14T13:15:49.000Z</time>
      </trkpt>
      <trkpt lat="54.379151" lon="9.697821">
        <ele>37.177950</ele>
        <time>2021-04-14T13:15:50.000Z</time>
      </trkpt>
      <trkpt lat="54.379119" lon="9.697683">
        <ele>37.172457</ele>
        <time>2021-04-14T13:15:56.000Z</time>
      </trkpt>
      <trkpt lat="54.379048" lon="9.697525">
        <ele>37.165077</ele>
        <time>2021-04-14T13:16:03.000Z</time>
      </trkpt>
      <trkpt lat="54.379020" lon="9.697475">
        <ele>37.162512</ele>
        <time>2021-04-14T13:16:06.000Z</time>
      </trkpt>
      <trkpt lat="54.378975" lon="9.697429">
        <ele>37.159187</ele>
        <time>2021-04-14T13:16:09.000Z</time>
      </trkpt>
      <trkpt lat="54.378870" lon="9.697239">
        <ele>37.149501</ele>
        <time>2021-04-14T13:16:18.000Z</time>
      </trkpt>
      <trkpt lat="54.378742" lon="9.697101">
        <ele>37.139904</ele>
        <time>2021-04-14T13:16:27.000Z</time>
      </trkpt>
      <trkpt lat="54.378729" lon="9.697084">
        <ele>37.138867</ele>
        <time>2021-04-14T13:16:28.000Z</time>
      </trkpt>
      <trkpt lat="54.378637" lon="9.697068">
        <ele>37.132995</ele>
        <time>2021-04-14T13:16:33.000Z</time>
      </trkpt>
      <trkpt lat="54.378621" lon="9.697056">
        <ele>37.131887</ele>
        <time>2021-04-14T13:16:34.000Z</time>
      </trkpt>
      <trkpt lat="54.378521" lon="9.696958">
        <ele>37.124576</ele>
        <time>2021-04-14T13:16:41.000Z</time>
      </trkpt>
      <trkpt lat="54.378481" lon="9.696914">
        <ele>37.121559</ele>
        <time>2021-04-14T13:16:44.000Z</time>
      </trkpt>
      <trkpt lat="54.378413" lon="9.696864">
        <ele>37.116863</ele>
        <time>2021-04-14T13:16:48.000Z</time>
      </trkpt>
      <trkpt lat="54.378397" lon="9.696851">
        <ele>37.115739</ele>
        <time>2021-04-14T13:16:49.000Z</time>
      </trkpt>
      <trkpt lat="54.378381" lon="9.696837">
        <ele>37.114598</ele>
        <time>2021-04-14T13:16:50.000Z</time>
      </trkpt>
      <trkpt lat="54.378352" lon="9.696805">
        <ele>37.112410</ele>
        <time>2021-04-14T13:16:52.000Z</time>
      </trkpt>
      <trkpt lat="54.378257" lon="9.696689">
        <ele>37.105008</ele>
        <time>2021-04-14T13:16:59.000Z</time>
      </trkpt>
      <trkpt lat="54.378126" lon="9.696609">
        <ele>37.096180</ele>
        <time>2021-04-14T13:17:07.000Z</time>
      </trkpt>
      <trkpt lat="54.378066" lon="9.696571">
        <ele>37.092119</ele>
        <time>2021-04-14T13:17:11.000Z</time>
      </trkpt>
      <trkpt lat="54.378006" lon="9.696524">
        <ele>37.087932</ele>
        <time>2021-04-14T13:17:15.000Z</time>
      </trkpt>
      <trkpt lat="54.377883" lon="9.696475">
        <ele>37.127605</ele>
        <time>2021-04-14T13:17:22.000Z</time>
      </trkpt>
      <trkpt lat="54.377800" lon="9.696409">
        <ele>37.243062</ele>
        <time>2021-04-14T13:17:28.000Z</time>
      </trkpt>
      <trkpt lat="54.377756" lon="9.696383">
        <ele>37.301798</ele>
        <time>2021-04-14T13:17:31.000Z</time>
      </trkpt>
      <trkpt lat="54.377704" lon="9.696329">
        <ele>37.378507</ele>
        <time>2021-04-14T13:17:35.000Z</time>
      </trkpt>
      <trkpt lat="54.377591" lon="9.696234">
        <ele>37.537322</ele>
        <time>2021-04-14T13:17:43.000Z</time>
      </trkpt>
      <trkpt lat="54.377435" lon="9.696113">
        <ele>37.753394</ele>
        <time>2021-04-14T13:17:53.000Z</time>
      </trkpt>
      <trkpt lat="54.377320" lon="9.696018">
        <ele>37.914481</ele>
        <time>2021-04-14T13:18:01.000Z</time>
      </trkpt>
      <trkpt lat="54.377182" lon="9.695947">
        <ele>38.096324</ele>
        <time>2021-04-14T13:18:09.000Z</time>
      </trkpt>
      <trkpt lat="54.377117" lon="9.695915">
        <ele>38.181676</ele>
        <time>2021-04-14T13:18:13.000Z</time>
      </trkpt>
      <trkpt lat="54.377102" lon="9.695910">
        <ele>38.200963</ele>
        <time>2021-04-14T13:18:14.000Z</time>
      </trkpt>
      <trkpt lat="54.377038" lon="9.695870">
        <ele>38.286933</ele>
        <time>2021-04-14T13:18:18.000Z</time>
      </trkpt>
      <trkpt lat="54.376949" lon="9.695794">
        <ele>38.412401</ele>
        <time>2021-04-14T13:18:24.000Z</time>
      </trkpt>
      <trkpt lat="54.376923" lon="9.695766">
        <ele>38.451141</ele>
        <time>2021-04-14T13:18:26.000Z</time>
      </trkpt>
      <trkpt lat="54.376909" lon="9.695753">
        <ele>38.471232</ele>
        <time>2021-04-14T13:18:27.000Z</time>
      </trkpt>
      <trkpt lat="54.376844" lon="9.695725">
        <ele>38.555821</ele>
        <time>2021-04-14T13:18:31.000Z</time>
      </trkpt>
      <trkpt lat="54.376787" lon="9.695680">
        <ele>38.635011</ele>
        <time>2021-04-14T13:18:35.000Z</time>
      </trkpt>
      <trkpt lat="54.376774" lon="9.695667">
        <ele>38.654001</ele>
        <time>2021-04-14T13:18:36.000Z</time>
      </trkpt>
      <trkpt lat="54.376760" lon="9.695651">
        <ele>38.675229</ele>
        <time>2021-04-14T13:18:37.000Z</time>
      </trkpt>
      <trkpt lat="54.376637" lon="9.695549">
        <ele>38.847647</ele>
        <time>2021-04-14T13:18:45.000Z</time>
      </trkpt>
      <trkpt lat="54.376577" lon="9.695475">
        <ele>38.940898</ele>
        <time>2021-04-14T13:18:50.000Z</time>
      </trkpt>
      <trkpt lat="54.376546" lon="9.695448">
        <ele>38.984774</ele>
        <time>2021-04-14T13:18:52.000Z</time>
      </trkpt>
      <trkpt lat="54.376415" lon="9.695383">
        <ele>39.156896</ele>
        <time>2021-04-14T13:19:00.000Z</time>
      </trkpt>
      <trkpt lat="54.376324" lon="9.695327">
        <ele>39.278916</ele>
        <time>2021-04-14T13:19:06.000Z</time>
      </trkpt>
      <trkpt lat="54.376217" lon="9.695194">
        <ele>39.532327</ele>
        <time>2021-04-14T13:19:14.000Z</time>
      </trkpt>
      <trkpt lat="54.376172" lon="9.695172">
        <ele>39.646349</ele>
        <time>2021-04-14T13:19:17.000Z</time>
      </trkpt>
      <trkpt lat="54.376144" lon="9.695149">
        <ele>39.721991</ele>
        <time>2021-04-14T13:19:19.000Z</time>
      </trkpt>
      <trkpt lat="54.376115" lon="9.695141">
        <ele>39.793568</ele>
        <time>2021-04-14T13:19:21.000Z</time>
      </trkpt>
      <trkpt lat="54.375997" lon="9.695078">
        <ele>40.094710</ele>
        <time>2021-04-14T13:19:29.000Z</time>
      </trkpt>
      <trkpt lat="54.375957" lon="9.695029">
        <ele>40.214457</ele>
        <time>2021-04-14T13:19:32.000Z</time>
      </trkpt>
      <trkpt lat="54.375914" lon="9.694971">
        <ele>40.347717</ele>
        <time>2021-04-14T13:19:35.000Z</time>
      </trkpt>
      <trkpt lat="54.375815" lon="9.694871">
        <ele>40.627633</ele>
        <time>2021-04-14T13:19:41.000Z</time>
      </trkpt>
      <trkpt lat="54.375773" lon="9.694820">
        <ele>40.752997</ele>
        <time>2021-04-14T13:19:44.000Z</time>
      </trkpt>
      <trkpt lat="54.375716" lon="9.694760">
        <ele>40.915933</ele>
        <time>2021-04-14T13:19:48.000Z</time>
      </trkpt>
      <trkpt lat="54.375670" lon="9.694669">
        <ele>41.086962</ele>
        <time>2021-04-14T13:19:52.000Z</time>
      </trkpt>
      <trkpt lat="54.375624" lon="9.694565">
        <ele>41.272322</ele>
        <time>2021-04-14T13:19:57.000Z</time>
      </trkpt>
      <trkpt lat="54.375612" lon="9.694537">
        <ele>41.321665</ele>
        <time>2021-04-14T13:19:58.000Z</time>
      </trkpt>
      <trkpt lat="54.375592" lon="9.694398">
        <ele>41.524898</ele>
        <time>2021-04-14T13:20:03.000Z</time>
      </trkpt>
      <trkpt lat="54.375590" lon="9.694310">
        <ele>41.649904</ele>
        <time>2021-04-14T13:20:06.000Z</time>
      </trkpt>
      <trkpt lat="54.375597" lon="9.694219">
        <ele>41.780194</ele>
        <time>2021-04-14T13:20:09.000Z</time>
      </trkpt>
      <trkpt lat="54.375617" lon="9.694104">
        <ele>41.950551</ele>
        <time>2021-04-14T13:20:13.000Z</time>
      </trkpt>
      <trkpt lat="54.375644" lon="9.693919">
        <ele>42.221265</ele>
        <time>2021-04-14T13:20:21.000Z</time>
      </trkpt>
      <trkpt lat="54.375665" lon="9.693808">
        <ele>42.386925</ele>
        <time>2021-04-14T13:20:25.000Z</time>
      </trkpt>
      <trkpt lat="54.375670" lon="9.693784">
        <ele>42.423105</ele>
        <time>2021-04-14T13:20:26.000Z</time>
      </trkpt>
      <trkpt lat="54.375682" lon="9.693730">
        <ele>42.505144</ele>
        <time>2021-04-14T13:20:28.000Z</time>
      </trkpt>
      <trkpt lat="54.375700" lon="9.693554">
        <ele>42.758787</ele>
        <time>2021-04-14T13:20:34.000Z</time>
      </trkpt>
      <trkpt lat="54.375699" lon="9.693527">
        <ele>42.797189</ele>
        <time>2021-04-14T13:20:35.000Z</time>
      </trkpt>
      <trkpt lat="54.375695" lon="9.693502">
        <ele>42.833989</ele>
        <time>2021-04-14T13:20:36.000Z</time>
      </trkpt>
      <trkpt lat="54.375687" lon="9.693480">
        <ele>42.870803</ele>
        <time>2021-04-14T13:20:37.000Z</time>
      </trkpt>
      <trkpt lat="54.375679" lon="9.693464">
        <ele>42.900734</ele>
        <time>2021-04-14T13:20:39.000Z</time>
      </trkpt>
      <trkpt lat="54.375678" lon="9.693458">
        <ele>42.909592</ele>
        <time>2021-04-14T13:20:40.000Z</time>
      </trkpt>
      <trkpt lat="54.375672" lon="9.693460">
        <ele>42.924487</ele>
        <time>2021-04-14T13:20:45.000Z</time>
      </trkpt>
      <trkpt lat="54.375671" lon="9.693470">
        <ele>42.938889</ele>
        <time>2021-04-14T13:20:48.000Z</time>
      </trkpt>
      <trkpt lat="54.375674" lon="9.693481">
        <ele>42.956130</ele>
        <time>2021-04-14T13:20:52.000Z</time>
      </trkpt>
      <trkpt lat="54.375676" lon="9.693478">
        <ele>42.962602</ele>
        <time>2021-04-14T13:20:53.000Z</time>
      </trkpt>
      <trkpt lat="54.375684" lon="9.693466">
        <ele>42.988490</ele>
        <time>2021-04-14T13:20:54.000Z</time>
      </trkpt>
      <trkpt lat="54.375696" lon="9.693454">
        <ele>43.022332</ele>
        <time>2021-04-14T13:20:55.000Z</time>
      </trkpt>
      <trkpt lat="54.375726" lon="9.693407">
        <ele>43.121305</ele>
        <time>2021-04-14T13:20:58.000Z</time>
      </trkpt>
      <trkpt lat="54.375742" lon="9.693364">
        <ele>43.193731</ele>
        <time>2021-04-14T13:21:00.000Z</time>
      </trkpt>
      <trkpt lat="54.375744" lon="9.693333">
        <ele>43.238003</ele>
        <time>2021-04-14T13:21:01.000Z</time>
      </trkpt>
      <trkpt lat="54.375747" lon="9.693307">
        <ele>43.275626</ele>
        <time>2021-04-14T13:21:02.000Z</time>
      </trkpt>
      <trkpt lat="54.375749" lon="9.693282">
        <ele>43.311445</ele>
        <time>2021-04-14T13:21:03.000Z</time>
      </trkpt>
      <trkpt lat="54.375756" lon="9.693235">
        <ele>43.380304</ele>
        <time>2021-04-14T13:21:05.000Z</time>
      </trkpt>
      <trkpt lat="54.375763" lon="9.693181">
        <ele>43.458829</ele>
        <time>2021-04-14T13:21:07.000Z</time>
      </trkpt>
      <trkpt lat="54.375767" lon="9.693112">
        <ele>43.557254</ele>
        <time>2021-04-14T13:21:09.000Z</time>
      </trkpt>
      <trkpt lat="54.375809" lon="9.692933">
        <ele>43.849157</ele>
        <time>2021-04-14T13:21:16.000Z</time>
      </trkpt>
      <trkpt lat="54.375816" lon="9.692881">
        <ele>43.939183</ele>
        <time>2021-04-14T13:21:18.000Z</time>
      </trkpt>
      <trkpt lat="54.375837" lon="9.692800">
        <ele>44.088739</ele>
        <time>2021-04-14T13:21:22.000Z</time>
      </trkpt>
      <trkpt lat="54.375845" lon="9.692722">
        <ele>44.222335</ele>
        <time>2021-04-14T13:21:25.000Z</time>
      </trkpt>
      <trkpt lat="54.375848" lon="9.692643">
        <ele>44.355876</ele>
        <time>2021-04-14T13:21:28.000Z</time>
      </trkpt>
      <trkpt lat="54.375847" lon="9.692621">
        <ele>44.393099</ele>
        <time>2021-04-14T13:21:29.000Z</time>
      </trkpt>
      <trkpt lat="54.375850" lon="9.692597">
        <ele>44.434504</ele>
        <time>2021-04-14T13:21:30.000Z</time>
      </trkpt>
      <trkpt lat="54.375856" lon="9.692540">
        <ele>44.532210</ele>
        <time>2021-04-14T13:21:32.000Z</time>
      </trkpt>
      <trkpt lat="54.375860" lon="9.692481">
        <ele>44.632404</ele>
        <time>2021-04-14T13:21:34.000Z</time>
      </trkpt>
      <trkpt lat="54.375866" lon="9.692268">
        <ele>44.992115</ele>
        <time>2021-04-14T13:21:41.000Z</time>
      </trkpt>
      <trkpt lat="54.375862" lon="9.692235">
        <ele>45.048973</ele>
        <time>2021-04-14T13:21:42.000Z</time>
      </trkpt>
      <trkpt lat="54.375855" lon="9.692167">
        <ele>45.165454</ele>
        <time>2021-04-14T13:21:44.000Z</time>
      </trkpt>
      <trkpt lat="54.375849" lon="9.692051">
        <ele>45.361894</ele>
        <time>2021-04-14T13:21:48.000Z</time>
      </trkpt>
      <trkpt lat="54.375841" lon="9.691990">
        <ele>45.467366</ele>
        <time>2021-04-14T13:21:50.000Z</time>
      </trkpt>
      <trkpt lat="54.375855" lon="9.691873">
        <ele>45.668845</ele>
        <time>2021-04-14T13:21:55.000Z</time>
      </trkpt>
      <trkpt lat="54.375857" lon="9.691831">
        <ele>45.739928</ele>
        <time>2021-04-14T13:21:57.000Z</time>
      </trkpt>
      <trkpt lat="54.375854" lon="9.691734">
        <ele>45.903779</ele>
        <time>2021-04-14T13:22:00.000Z</time>
      </trkpt>
      <trkpt lat="54.375842" lon="9.691635">
        <ele>46.074352</ele>
        <time>2021-04-14T13:22:04.000Z</time>
      </trkpt>
      <trkpt lat="54.375829" lon="9.691517">
        <ele>46.276925</ele>
        <time>2021-04-14T13:22:09.000Z</time>
      </trkpt>
      <trkpt lat="54.375823" lon="9.691474">
        <ele>46.351510</ele>
        <time>2021-04-14T13:22:11.000Z</time>
      </trkpt>
      <trkpt lat="54.375819" lon="9.691402">
        <ele>46.473512</ele>
        <time>2021-04-14T13:22:14.000Z</time>
      </trkpt>
      <trkpt lat="54.375805" lon="9.691362">
        <ele>46.552229</ele>
        <time>2021-04-14T13:22:16.000Z</time>
      </trkpt>
      <trkpt lat="54.375788" lon="9.691314">
        <ele>46.646989</ele>
        <time>2021-04-14T13:22:18.000Z</time>
      </trkpt>
      <trkpt lat="54.375784" lon="9.691289">
        <ele>46.690722</ele>
        <time>2021-04-14T13:22:19.000Z</time>
      </trkpt>
      <trkpt lat="54.375777" lon="9.691261">
        <ele>46.742119</ele>
        <time>2021-04-14T13:22:20.000Z</time>
      </trkpt>
      <trkpt lat="54.375754" lon="9.691140">
        <ele>46.956818</ele>
        <time>2021-04-14T13:22:24.000Z</time>
      </trkpt>
      <trkpt lat="54.375741" lon="9.691090">
        <ele>47.049180</ele>
        <time>2021-04-14T13:22:26.000Z</time>
      </trkpt>
      <trkpt lat="54.375711" lon="9.690958">
        <ele>47.288190</ele>
        <time>2021-04-14T13:22:30.000Z</time>
      </trkpt>
      <trkpt lat="54.375696" lon="9.690901">
        <ele>47.393696</ele>
        <time>2021-04-14T13:22:32.000Z</time>
      </trkpt>
      <trkpt lat="54.375675" lon="9.690749">
        <ele>47.657207</ele>
        <time>2021-04-14T13:22:38.000Z</time>
      </trkpt>
      <trkpt lat="54.375663" lon="9.690702">
        <ele>47.743770</ele>
        <time>2021-04-14T13:22:40.000Z</time>
      </trkpt>
      <trkpt lat="54.375656" lon="9.690676">
        <ele>47.792086</ele>
        <time>2021-04-14T13:22:41.000Z</time>
      </trkpt>
      <trkpt lat="54.375624" lon="9.690510">
        <ele>48.087035</ele>
        <time>2021-04-14T13:22:47.000Z</time>
      </trkpt>
      <trkpt lat="54.375587" lon="9.690339">
        <ele>48.394742</ele>
        <time>2021-04-14T13:22:53.000Z</time>
      </trkpt>
      <trkpt lat="54.375559" lon="9.690292">
        <ele>48.508147</ele>
        <time>2021-04-14T13:22:55.000Z</time>
      </trkpt>
      <trkpt lat="54.375522" lon="9.690199">
        <ele>48.698124</ele>
        <time>2021-04-14T13:22:58.000Z</time>
      </trkpt>
      <trkpt lat="54.375502" lon="9.690137">
        <ele>48.817674</ele>
        <time>2021-04-14T13:23:00.000Z</time>
      </trkpt>
      <trkpt lat="54.375465" lon="9.690077">
        <ele>48.934820</ele>
        <time>2021-04-14T13:23:03.000Z</time>
      </trkpt>
      <trkpt lat="54.375438" lon="9.689988">
        <ele>48.854414</ele>
        <time>2021-04-14T13:23:07.000Z</time>
      </trkpt>
      <trkpt lat="54.375425" lon="9.689930">
        <ele>48.804619</ele>
        <time>2021-04-14T13:23:09.000Z</time>
      </trkpt>
      <trkpt lat="54.375392" lon="9.689834">
        <ele>48.715300</ele>
        <time>2021-04-14T13:23:13.000Z</time>
      </trkpt>
      <trkpt lat="54.375337" lon="9.689638">
        <ele>48.540977</ele>
        <time>2021-04-14T13:23:20.000Z</time>
      </trkpt>
      <trkpt lat="54.375274" lon="9.689417">
        <ele>48.343826</ele>
        <time>2021-04-14T13:23:27.000Z</time>
      </trkpt>
      <trkpt lat="54.375267" lon="9.689367">
        <ele>48.302621</ele>
        <time>2021-04-14T13:23:29.000Z</time>
      </trkpt>
      <trkpt lat="54.375253" lon="9.689257">
        <ele>48.212402</ele>
        <time>2021-04-14T13:23:34.000Z</time>
      </trkpt>
      <trkpt lat="54.375256" lon="9.689155">
        <ele>48.130568</ele>
        <time>2021-04-14T13:23:38.000Z</time>
      </trkpt>
      <trkpt lat="54.375242" lon="9.689094">
        <ele>48.078033</ele>
        <time>2021-04-14T13:23:40.000Z</time>
      </trkpt>
      <trkpt lat="54.375229" lon="9.688952">
        <ele>47.962855</ele>
        <time>2021-04-14T13:23:44.000Z</time>
      </trkpt>
      <trkpt lat="54.375237" lon="9.688923">
        <ele>47.937144</ele>
        <time>2021-04-14T13:23:45.000Z</time>
      </trkpt>
      <trkpt lat="54.375241" lon="9.688887">
        <ele>47.907778</ele>
        <time>2021-04-14T13:23:46.000Z</time>
      </trkpt>
      <trkpt lat="54.375251" lon="9.688859">
        <ele>47.881461</ele>
        <time>2021-04-14T13:23:47.000Z</time>
      </trkpt>
      <trkpt lat="54.375266" lon="9.688787">
        <ele>47.820190</ele>
        <time>2021-04-14T13:23:49.000Z</time>
      </trkpt>
      <trkpt lat="54.375270" lon="9.688753">
        <ele>47.792397</ele>
        <time>2021-04-14T13:23:50.000Z</time>
      </trkpt>
      <trkpt lat="54.375309" lon="9.688602">
        <ele>47.660043</ele>
        <time>2021-04-14T13:23:56.000Z</time>
      </trkpt>
      <trkpt lat="54.375310" lon="9.688583">
        <ele>47.644757</ele>
        <time>2021-04-14T13:23:57.000Z</time>
      </trkpt>
      <trkpt lat="54.375300" lon="9.688450">
        <ele>47.537304</ele>
        <time>2021-04-14T13:24:02.000Z</time>
      </trkpt>
      <trkpt lat="54.375319" lon="9.688293">
        <ele>47.408818</ele>
        <time>2021-04-14T13:24:08.000Z</time>
      </trkpt>
      <trkpt lat="54.375330" lon="9.688271">
        <ele>47.385586</ele>
        <time>2021-04-14T13:24:09.000Z</time>
      </trkpt>
      <trkpt lat="54.375329" lon="9.688177">
        <ele>47.310254</ele>
        <time>2021-04-14T13:24:12.000Z</time>
      </trkpt>
      <trkpt lat="54.375321" lon="9.688091">
        <ele>47.240471</ele>
        <time>2021-04-14T13:24:15.000Z</time>
      </trkpt>
      <trkpt lat="54.375313" lon="9.688027">
        <ele>47.188022</ele>
        <time>2021-04-14T13:24:17.000Z</time>
      </trkpt>
      <trkpt lat="54.375321" lon="9.687921">
        <ele>47.102378</ele>
        <time>2021-04-14T13:24:21.000Z</time>
      </trkpt>
      <trkpt lat="54.375316" lon="9.687785">
        <ele>46.993188</ele>
        <time>2021-04-14T13:24:26.000Z</time>
      </trkpt>
      <trkpt lat="54.375314" lon="9.687767">
        <ele>46.978505</ele>
        <time>2021-04-14T13:24:27.000Z</time>
      </trkpt>
      <trkpt lat="54.375309" lon="9.687724">
        <ele>46.943370</ele>
        <time>2021-04-14T13:24:29.000Z</time>
      </trkpt>
      <trkpt lat="54.375307" lon="9.687691">
        <ele>46.916786</ele>
        <time>2021-04-14T13:24:30.000Z</time>
      </trkpt>
      <trkpt lat="54.375319" lon="9.687603">
        <ele>46.844367</ele>
        <time>2021-04-14T13:24:33.000Z</time>
      </trkpt>
      <trkpt lat="54.375340" lon="9.687545">
        <ele>46.789647</ele>
        <time>2021-04-14T13:24:35.000Z</time>
      </trkpt>
      <trkpt lat="54.375366" lon="9.687396">
        <ele>46.665015</ele>
        <time>2021-04-14T13:24:39.000Z</time>
      </trkpt>
      <trkpt lat="54.375394" lon="9.687232">
        <ele>46.528078</ele>
        <time>2021-04-14T13:24:46.000Z</time>
      </trkpt>
      <trkpt lat="54.375389" lon="9.687205">
        <ele>46.505377</ele>
        <time>2021-04-14T13:24:49.000Z</time>
      </trkpt>
      <trkpt lat="54.375379" lon="9.687144">
        <ele>46.438094</ele>
        <time>2021-04-14T13:24:53.000Z</time>
      </trkpt>
      <trkpt lat="54.375376" lon="9.687127">
        <ele>46.408881</ele>
        <time>2021-04-14T13:24:54.000Z</time>
      </trkpt>
      <trkpt lat="54.375402" lon="9.687073">
        <ele>46.293658</ele>
        <time>2021-04-14T13:24:59.000Z</time>
      </trkpt>
      <trkpt lat="54.375391" lon="9.687063">
        <ele>46.258514</ele>
        <time>2021-04-14T13:25:01.000Z</time>
      </trkpt>
      <trkpt lat="54.375357" lon="9.687025">
        <ele>46.143965</ele>
        <time>2021-04-14T13:25:05.000Z</time>
      </trkpt>
      <trkpt lat="54.375314" lon="9.687049">
        <ele>46.016300</ele>
        <time>2021-04-14T13:25:15.000Z</time>
      </trkpt>
      <trkpt lat="54.375317" lon="9.687084">
        <ele>45.958119</ele>
        <time>2021-04-14T13:25:22.000Z</time>
      </trkpt>
      <trkpt lat="54.375317" lon="9.687083">
        <ele>45.956474</ele>
        <time>2021-04-14T13:25:23.000Z</time>
      </trkpt>
      <trkpt lat="54.375316" lon="9.687074">
        <ele>45.941406</ele>
        <time>2021-04-14T13:25:27.000Z</time>
      </trkpt>
      <trkpt lat="54.375316" lon="9.687045">
        <ele>45.893712</ele>
        <time>2021-04-14T13:25:32.000Z</time>
      </trkpt>
      <trkpt lat="54.375335" lon="9.687030">
        <ele>45.834665</ele>
        <time>2021-04-14T13:25:39.000Z</time>
      </trkpt>
      <trkpt lat="54.375353" lon="9.686966">
        <ele>45.717782</ele>
        <time>2021-04-14T13:25:43.000Z</time>
      </trkpt>
      <trkpt lat="54.375356" lon="9.686928">
        <ele>45.654715</ele>
        <time>2021-04-14T13:25:45.000Z</time>
      </trkpt>
      <trkpt lat="54.375365" lon="9.686853">
        <ele>45.528779</ele>
        <time>2021-04-14T13:25:49.000Z</time>
      </trkpt>
      <trkpt lat="54.375369" lon="9.686816">
        <ele>45.466889</ele>
        <time>2021-04-14T13:25:51.000Z</time>
      </trkpt>
      <trkpt lat="54.375368" lon="9.686776">
        <ele>45.401044</ele>
        <time>2021-04-14T13:25:53.000Z</time>
      </trkpt>
      <trkpt lat="54.375362" lon="9.686750">
        <ele>45.355050</ele>
        <time>2021-04-14T13:25:54.000Z</time>
      </trkpt>
      <trkpt lat="54.375361" lon="9.686719">
        <ele>45.303989</ele>
        <time>2021-04-14T13:25:55.000Z</time>
      </trkpt>
      <trkpt lat="54.375356" lon="9.686673">
        <ele>45.227031</ele>
        <time>2021-04-14T13:25:58.000Z</time>
      </trkpt>
      <trkpt lat="54.375349" lon="9.686633">
        <ele>45.158342</ele>
        <time>2021-04-14T13:26:00.000Z</time>
      </trkpt>
      <trkpt lat="54.375332" lon="9.686586">
        <ele>45.067354</ele>
        <time>2021-04-14T13:26:02.000Z</time>
      </trkpt>
      <trkpt lat="54.375331" lon="9.686580">
        <ele>45.057090</ele>
        <time>2021-04-14T13:26:03.000Z</time>
      </trkpt>
      <trkpt lat="54.375332" lon="9.686580">
        <ele>45.054267</ele>
        <time>2021-04-14T13:26:04.000Z</time>
      </trkpt>
      <trkpt lat="54.375338" lon="9.686518">
        <ele>44.950903</ele>
        <time>2021-04-14T13:26:10.000Z</time>
      </trkpt>
      <trkpt lat="54.375339" lon="9.686514">
        <ele>44.943744</ele>
        <time>2021-04-14T13:26:13.000Z</time>
      </trkpt>
      <trkpt lat="54.375301" lon="9.686393">
        <ele>44.717665</ele>
        <time>2021-04-14T13:26:21.000Z</time>
      </trkpt>
      <trkpt lat="54.375248" lon="9.686351">
        <ele>44.552846</ele>
        <time>2021-04-14T13:26:27.000Z</time>
      </trkpt>
      <trkpt lat="54.375245" lon="9.686332">
        <ele>44.520471</ele>
        <time>2021-04-14T13:26:28.000Z</time>
      </trkpt>
      <trkpt lat="54.375233" lon="9.686293">
        <ele>44.447932</ele>
        <time>2021-04-14T13:26:31.000Z</time>
      </trkpt>
      <trkpt lat="54.375216" lon="9.686248">
        <ele>44.359721</ele>
        <time>2021-04-14T13:26:34.000Z</time>
      </trkpt>
      <trkpt lat="54.375213" lon="9.686223">
        <ele>44.317742</ele>
        <time>2021-04-14T13:26:36.000Z</time>
      </trkpt>
      <trkpt lat="54.375217" lon="9.686195">
        <ele>44.270328</ele>
        <time>2021-04-14T13:26:38.000Z</time>
      </trkpt>
      <trkpt lat="54.375219" lon="9.686180">
        <ele>44.245021</ele>
        <time>2021-04-14T13:26:39.000Z</time>
      </trkpt>
      <trkpt lat="54.375212" lon="9.686036">
        <ele>44.007373</ele>
        <time>2021-04-14T13:26:45.000Z</time>
      </trkpt>
      <trkpt lat="54.375218" lon="9.685990">
        <ele>43.929847</ele>
        <time>2021-04-14T13:26:47.000Z</time>
      </trkpt>
      <trkpt lat="54.375216" lon="9.685921">
        <ele>43.816227</ele>
        <time>2021-04-14T13:26:50.000Z</time>
      </trkpt>
      <trkpt lat="54.375248" lon="9.685825">
        <ele>43.634319</ele>
        <time>2021-04-14T13:26:55.000Z</time>
      </trkpt>
      <trkpt lat="54.375256" lon="9.685808">
        <ele>43.598376</ele>
        <time>2021-04-14T13:26:57.000Z</time>
      </trkpt>
      <trkpt lat="54.375277" lon="9.685748">
        <ele>43.483255</ele>
        <time>2021-04-14T13:26:59.000Z</time>
      </trkpt>
      <trkpt lat="54.375293" lon="9.685723">
        <ele>43.422170</ele>
        <time>2021-04-14T13:27:00.000Z</time>
      </trkpt>
      <trkpt lat="54.375302" lon="9.685706">
        <ele>43.384389</ele>
        <time>2021-04-14T13:27:01.000Z</time>
      </trkpt>
      <trkpt lat="54.375319" lon="9.685680">
        <ele>43.320106</ele>
        <time>2021-04-14T13:27:02.000Z</time>
      </trkpt>
      <trkpt lat="54.375332" lon="9.685623">
        <ele>43.219433</ele>
        <time>2021-04-14T13:27:04.000Z</time>
      </trkpt>
      <trkpt lat="54.375340" lon="9.685547">
        <ele>43.092418</ele>
        <time>2021-04-14T13:27:07.000Z</time>
      </trkpt>
      <trkpt lat="54.375347" lon="9.685522">
        <ele>43.046798</ele>
        <time>2021-04-14T13:27:08.000Z</time>
      </trkpt>
      <trkpt lat="54.375353" lon="9.685506">
        <ele>43.015503</ele>
        <time>2021-04-14T13:27:09.000Z</time>
      </trkpt>
      <trkpt lat="54.375371" lon="9.685475">
        <ele>42.943515</ele>
        <time>2021-04-14T13:27:11.000Z</time>
      </trkpt>
      <trkpt lat="54.375385" lon="9.685470">
        <ele>42.903140</ele>
        <time>2021-04-14T13:27:12.000Z</time>
      </trkpt>
      <trkpt lat="54.375468" lon="9.685385">
        <ele>42.630263</ele>
        <time>2021-04-14T13:27:18.000Z</time>
      </trkpt>
      <trkpt lat="54.375484" lon="9.685366">
        <ele>42.575333</ele>
        <time>2021-04-14T13:27:19.000Z</time>
      </trkpt>
      <trkpt lat="54.375512" lon="9.685333">
        <ele>42.479439</ele>
        <time>2021-04-14T13:27:21.000Z</time>
      </trkpt>
      <trkpt lat="54.375544" lon="9.685304">
        <ele>42.377272</ele>
        <time>2021-04-14T13:27:24.000Z</time>
      </trkpt>
      <trkpt lat="54.375558" lon="9.685281">
        <ele>42.322560</ele>
        <time>2021-04-14T13:27:25.000Z</time>
      </trkpt>
      <trkpt lat="54.375612" lon="9.685205">
        <ele>42.125407</ele>
        <time>2021-04-14T13:27:30.000Z</time>
      </trkpt>
      <trkpt lat="54.375626" lon="9.685191">
        <ele>42.079661</ele>
        <time>2021-04-14T13:27:31.000Z</time>
      </trkpt>
      <trkpt lat="54.375687" lon="9.685136">
        <ele>41.885121</ele>
        <time>2021-04-14T13:27:35.000Z</time>
      </trkpt>
      <trkpt lat="54.375699" lon="9.685118">
        <ele>41.840128</ele>
        <time>2021-04-14T13:27:36.000Z</time>
      </trkpt>
      <trkpt lat="54.375771" lon="9.685016">
        <ele>41.576562</ele>
        <time>2021-04-14T13:27:41.000Z</time>
      </trkpt>
      <trkpt lat="54.375816" lon="9.684968">
        <ele>41.426978</ele>
        <time>2021-04-14T13:27:44.000Z</time>
      </trkpt>
      <trkpt lat="54.375869" lon="9.684915">
        <ele>41.407084</ele>
        <time>2021-04-14T13:27:47.000Z</time>
      </trkpt>
      <trkpt lat="54.375956" lon="9.684798">
        <ele>41.441616</ele>
        <time>2021-04-14T13:27:54.000Z</time>
      </trkpt>
      <trkpt lat="54.375971" lon="9.684785">
        <ele>41.446866</ele>
        <time>2021-04-14T13:27:55.000Z</time>
      </trkpt>
      <trkpt lat="54.376048" lon="9.684713">
        <ele>41.474263</ele>
        <time>2021-04-14T13:28:00.000Z</time>
      </trkpt>
      <trkpt lat="54.376169" lon="9.684569">
        <ele>41.520267</ele>
        <time>2021-04-14T13:28:08.000Z</time>
      </trkpt>
      <trkpt lat="54.376279" lon="9.684451">
        <ele>41.560796</ele>
        <time>2021-04-14T13:28:15.000Z</time>
      </trkpt>
      <trkpt lat="54.376360" lon="9.684377">
        <ele>41.589466</ele>
        <time>2021-04-14T13:28:21.000Z</time>
      </trkpt>
      <trkpt lat="54.376375" lon="9.684372">
        <ele>41.594241</ele>
        <time>2021-04-14T13:28:22.000Z</time>
      </trkpt>
      <trkpt lat="54.376414" lon="9.684329">
        <ele>41.608724</ele>
        <time>2021-04-14T13:28:25.000Z</time>
      </trkpt>
      <trkpt lat="54.376447" lon="9.684254">
        <ele>41.625831</ele>
        <time>2021-04-14T13:28:28.000Z</time>
      </trkpt>
      <trkpt lat="54.376503" lon="9.684155">
        <ele>41.650947</ele>
        <time>2021-04-14T13:28:34.000Z</time>
      </trkpt>
      <trkpt lat="54.376572" lon="9.684056">
        <ele>41.679045</ele>
        <time>2021-04-14T13:28:40.000Z</time>
      </trkpt>
      <trkpt lat="54.376617" lon="9.683949">
        <ele>41.703064</ele>
        <time>2021-04-14T13:28:44.000Z</time>
      </trkpt>
      <trkpt lat="54.376647" lon="9.683887">
        <ele>41.717734</ele>
        <time>2021-04-14T13:28:47.000Z</time>
      </trkpt>
      <trkpt lat="54.376685" lon="9.683798">
        <ele>41.737818</ele>
        <time>2021-04-14T13:28:51.000Z</time>
      </trkpt>
      <trkpt lat="54.376708" lon="9.683727">
        <ele>41.752604</ele>
        <time>2021-04-14T13:28:54.000Z</time>
      </trkpt>
      <trkpt lat="54.376729" lon="9.683670">
        <ele>41.764879</ele>
        <time>2021-04-14T13:28:56.000Z</time>
      </trkpt>
      <trkpt lat="54.376740" lon="9.683637">
        <ele>41.771799</ele>
        <time>2021-04-14T13:28:57.000Z</time>
      </trkpt>
      <trkpt lat="54.376807" lon="9.683542">
        <ele>41.798950</ele>
        <time>2021-04-14T13:29:02.000Z</time>
      </trkpt>
      <trkpt lat="54.376820" lon="9.683525">
        <ele>41.804057</ele>
        <time>2021-04-14T13:29:03.000Z</time>
      </trkpt>
      <trkpt lat="54.376876" lon="9.683472">
        <ele>41.824037</ele>
        <time>2021-04-14T13:29:07.000Z</time>
      </trkpt>
      <trkpt lat="54.376937" lon="9.683440">
        <ele>41.843968</ele>
        <time>2021-04-14T13:29:11.000Z</time>
      </trkpt>
      <trkpt lat="54.377017" lon="9.683365">
        <ele>41.872449</ele>
        <time>2021-04-14T13:29:17.000Z</time>
      </trkpt>
      <trkpt lat="54.377044" lon="9.683330">
        <ele>41.883020</ele>
        <time>2021-04-14T13:29:19.000Z</time>
      </trkpt>
      <trkpt lat="54.377125" lon="9.683286">
        <ele>41.909567</ele>
        <time>2021-04-14T13:29:24.000Z</time>
      </trkpt>
      <trkpt lat="54.377150" lon="9.683255">
        <ele>41.919203</ele>
        <time>2021-04-14T13:29:26.000Z</time>
      </trkpt>
      <trkpt lat="54.377163" lon="9.683230">
        <ele>41.925302</ele>
        <time>2021-04-14T13:29:27.000Z</time>
      </trkpt>
      <trkpt lat="54.377214" lon="9.683198">
        <ele>41.942269</ele>
        <time>2021-04-14T13:29:30.000Z</time>
      </trkpt>
      <trkpt lat="54.377266" lon="9.683148">
        <ele>41.933631</ele>
        <time>2021-04-14T13:29:35.000Z</time>
      </trkpt>
      <trkpt lat="54.377275" lon="9.683130">
        <ele>41.921287</ele>
        <time>2021-04-14T13:29:36.000Z</time>
      </trkpt>
      <trkpt lat="54.377298" lon="9.683112">
        <ele>41.898703</ele>
        <time>2021-04-14T13:29:38.000Z</time>
      </trkpt>
      <trkpt lat="54.377348" lon="9.683057">
        <ele>41.845649</ele>
        <time>2021-04-14T13:29:42.000Z</time>
      </trkpt>
      <trkpt lat="54.377431" lon="9.682943">
        <ele>41.750684</ele>
        <time>2021-04-14T13:29:48.000Z</time>
      </trkpt>
      <trkpt lat="54.377453" lon="9.682926">
        <ele>41.729129</ele>
        <time>2021-04-14T13:29:49.000Z</time>
      </trkpt>
      <trkpt lat="54.377534" lon="9.682871">
        <ele>41.651306</ele>
        <time>2021-04-14T13:29:53.000Z</time>
      </trkpt>
      <trkpt lat="54.377604" lon="9.682808">
        <ele>41.580693</ele>
        <time>2021-04-14T13:29:58.000Z</time>
      </trkpt>
      <trkpt lat="54.377619" lon="9.682792">
        <ele>41.564916</ele>
        <time>2021-04-14T13:29:59.000Z</time>
      </trkpt>
      <trkpt lat="54.377720" lon="9.682723">
        <ele>41.467796</ele>
        <time>2021-04-14T13:30:05.000Z</time>
      </trkpt>
      <trkpt lat="54.377822" lon="9.682677">
        <ele>41.373574</ele>
        <time>2021-04-14T13:30:11.000Z</time>
      </trkpt>
      <trkpt lat="54.377922" lon="9.682648">
        <ele>41.282964</ele>
        <time>2021-04-14T13:30:18.000Z</time>
      </trkpt>
      <trkpt lat="54.377943" lon="9.682620">
        <ele>41.259208</ele>
        <time>2021-04-14T13:30:20.000Z</time>
      </trkpt>
      <trkpt lat="54.377991" lon="9.682571">
        <ele>41.209315</ele>
        <time>2021-04-14T13:30:23.000Z</time>
      </trkpt>
      <trkpt lat="54.378042" lon="9.682551">
        <ele>41.162576</ele>
        <time>2021-04-14T13:30:26.000Z</time>
      </trkpt>
      <trkpt lat="54.378081" lon="9.682550">
        <ele>41.127728</ele>
        <time>2021-04-14T13:30:29.000Z</time>
      </trkpt>
      <trkpt lat="54.378111" lon="9.682547">
        <ele>41.100879</ele>
        <time>2021-04-14T13:30:31.000Z</time>
      </trkpt>
      <trkpt lat="54.378175" lon="9.682545">
        <ele>41.043689</ele>
        <time>2021-04-14T13:30:34.000Z</time>
      </trkpt>
      <trkpt lat="54.378183" lon="9.682539">
        <ele>41.035890</ele>
        <time>2021-04-14T13:30:35.000Z</time>
      </trkpt>
      <trkpt lat="54.378210" lon="9.682493">
        <ele>41.001906</ele>
        <time>2021-04-14T13:30:41.000Z</time>
      </trkpt>
      <trkpt lat="54.378232" lon="9.682539">
        <ele>40.970933</ele>
        <time>2021-04-14T13:30:46.000Z</time>
      </trkpt>
      <trkpt lat="54.378259" lon="9.682604">
        <ele>40.929388</ele>
        <time>2021-04-14T13:30:50.000Z</time>
      </trkpt>
      <trkpt lat="54.378280" lon="9.682634">
        <ele>40.904980</ele>
        <time>2021-04-14T13:30:52.000Z</time>
      </trkpt>
      <trkpt lat="54.378303" lon="9.682668">
        <ele>40.877864</ele>
        <time>2021-04-14T13:30:54.000Z</time>
      </trkpt>
      <trkpt lat="54.378325" lon="9.682684">
        <ele>40.856517</ele>
        <time>2021-04-14T13:30:56.000Z</time>
      </trkpt>
      <trkpt lat="54.378372" lon="9.682759">
        <ele>40.799189</ele>
        <time>2021-04-14T13:31:00.000Z</time>
      </trkpt>
      <trkpt lat="54.378388" lon="9.682778">
        <ele>40.781808</ele>
        <time>2021-04-14T13:31:01.000Z</time>
      </trkpt>
      <trkpt lat="54.378458" lon="9.682856">
        <ele>40.707251</ele>
        <time>2021-04-14T13:31:06.000Z</time>
      </trkpt>
      <trkpt lat="54.378467" lon="9.682866">
        <ele>40.697673</ele>
        <time>2021-04-14T13:31:07.000Z</time>
      </trkpt>
      <trkpt lat="54.378496" lon="9.682902">
        <ele>40.665700</ele>
        <time>2021-04-14T13:31:09.000Z</time>
      </trkpt>
      <trkpt lat="54.378512" lon="9.682934">
        <ele>40.643754</ele>
        <time>2021-04-14T13:31:11.000Z</time>
      </trkpt>
      <trkpt lat="54.378524" lon="9.682949">
        <ele>40.630492</ele>
        <time>2021-04-14T13:31:12.000Z</time>
      </trkpt>
      <trkpt lat="54.378573" lon="9.682994">
        <ele>40.580844</ele>
        <time>2021-04-14T13:31:16.000Z</time>
      </trkpt>
      <trkpt lat="54.378583" lon="9.683007">
        <ele>40.569638</ele>
        <time>2021-04-14T13:31:17.000Z</time>
      </trkpt>
      <trkpt lat="54.378671" lon="9.683118">
        <ele>40.472078</ele>
        <time>2021-04-14T13:31:23.000Z</time>
      </trkpt>
      <trkpt lat="54.378775" lon="9.683230">
        <ele>40.362395</ele>
        <time>2021-04-14T13:31:29.000Z</time>
      </trkpt>
      <trkpt lat="54.378856" lon="9.683290">
        <ele>40.397290</ele>
        <time>2021-04-14T13:31:35.000Z</time>
      </trkpt>
      <trkpt lat="54.378863" lon="9.683302">
        <ele>40.404338</ele>
        <time>2021-04-14T13:31:36.000Z</time>
      </trkpt>
      <trkpt lat="54.378873" lon="9.683309">
        <ele>40.412033</ele>
        <time>2021-04-14T13:31:37.000Z</time>
      </trkpt>
      <trkpt lat="54.378928" lon="9.683353">
        <ele>40.455265</ele>
        <time>2021-04-14T13:31:41.000Z</time>
      </trkpt>
      <trkpt lat="54.378956" lon="9.683385">
        <ele>40.479230</ele>
        <time>2021-04-14T13:31:43.000Z</time>
      </trkpt>
      <trkpt lat="54.379051" lon="9.683504">
        <ele>40.563015</ele>
        <time>2021-04-14T13:31:49.000Z</time>
      </trkpt>
      <trkpt lat="54.379109" lon="9.683622">
        <ele>40.627089</ele>
        <time>2021-04-14T13:31:56.000Z</time>
      </trkpt>
      <trkpt lat="54.379121" lon="9.683640">
        <ele>40.638442</ele>
        <time>2021-04-14T13:31:57.000Z</time>
      </trkpt>
      <trkpt lat="54.379212" lon="9.683764">
        <ele>40.721216</ele>
        <time>2021-04-14T13:32:02.000Z</time>
      </trkpt>
      <trkpt lat="54.379321" lon="9.683955">
        <ele>40.832181</ele>
        <time>2021-04-14T13:32:09.000Z</time>
      </trkpt>
      <trkpt lat="54.379350" lon="9.684042">
        <ele>40.873778</ele>
        <time>2021-04-14T13:32:14.000Z</time>
      </trkpt>
      <trkpt lat="54.379364" lon="9.684086">
        <ele>40.894584</ele>
        <time>2021-04-14T13:32:16.000Z</time>
      </trkpt>
      <trkpt lat="54.379377" lon="9.684107">
        <ele>40.907301</ele>
        <time>2021-04-14T13:32:17.000Z</time>
      </trkpt>
      <trkpt lat="54.379399" lon="9.684137">
        <ele>40.927318</ele>
        <time>2021-04-14T13:32:19.000Z</time>
      </trkpt>
      <trkpt lat="54.379433" lon="9.684212">
        <ele>40.966757</ele>
        <time>2021-04-14T13:32:22.000Z</time>
      </trkpt>
      <trkpt lat="54.379445" lon="9.684210">
        <ele>40.975347</ele>
        <time>2021-04-14T13:32:23.000Z</time>
      </trkpt>
      <trkpt lat="54.379457" lon="9.684214">
        <ele>40.984057</ele>
        <time>2021-04-14T13:32:24.000Z</time>
      </trkpt>
      <trkpt lat="54.379483" lon="9.684201">
        <ele>41.003351</ele>
        <time>2021-04-14T13:32:27.000Z</time>
      </trkpt>
      <trkpt lat="54.379486" lon="9.684205">
        <ele>41.006057</ele>
        <time>2021-04-14T13:32:29.000Z</time>
      </trkpt>
      <trkpt lat="54.379482" lon="9.684211">
        <ele>41.009842</ele>
        <time>2021-04-14T13:32:31.000Z</time>
      </trkpt>
      <trkpt lat="54.379494" lon="9.684159">
        <ele>41.033052</ele>
        <time>2021-04-14T13:32:35.000Z</time>
      </trkpt>
      <trkpt lat="54.379496" lon="9.684154">
        <ele>41.035569</ele>
        <time>2021-04-14T13:32:36.000Z</time>
      </trkpt>
      <trkpt lat="54.379497" lon="9.684149">
        <ele>41.037763</ele>
        <time>2021-04-14T13:32:44.000Z</time>
      </trkpt>
      <trkpt lat="54.379503" lon="9.684114">
        <ele>41.052903</ele>
        <time>2021-04-14T13:32:54.000Z</time>
      </trkpt>
      <trkpt lat="54.379483" lon="9.684057">
        <ele>41.080517</ele>
        <time>2021-04-14T13:33:05.000Z</time>
      </trkpt>
      <trkpt lat="54.379511" lon="9.684099">
        <ele>41.107007</ele>
        <time>2021-04-14T13:33:11.000Z</time>
      </trkpt>
      <trkpt lat="54.379466" lon="9.684253">
        <ele>41.178504</ele>
        <time>2021-04-14T13:33:18.000Z</time>
      </trkpt>
      <trkpt lat="54.379464" lon="9.684342">
        <ele>41.215463</ele>
        <time>2021-04-14T13:33:21.000Z</time>
      </trkpt>
      <trkpt lat="54.379478" lon="9.684415">
        <ele>41.247356</ele>
        <time>2021-04-14T13:33:24.000Z</time>
      </trkpt>
      <trkpt lat="54.379481" lon="9.684434">
        <ele>41.255525</ele>
        <time>2021-04-14T13:33:25.000Z</time>
      </trkpt>
      <trkpt lat="54.379500" lon="9.684495">
        <ele>41.284230</ele>
        <time>2021-04-14T13:33:28.000Z</time>
      </trkpt>
      <trkpt lat="54.379515" lon="9.684549">
        <ele>41.309057</ele>
        <time>2021-04-14T13:33:30.000Z</time>
      </trkpt>
      <trkpt lat="54.379535" lon="9.684647">
        <ele>41.352148</ele>
        <time>2021-04-14T13:33:33.000Z</time>
      </trkpt>
      <trkpt lat="54.379549" lon="9.684699">
        <ele>41.375920</ele>
        <time>2021-04-14T13:33:35.000Z</time>
      </trkpt>
      <trkpt lat="54.379555" lon="9.684744">
        <ele>41.395076</ele>
        <time>2021-04-14T13:33:37.000Z</time>
      </trkpt>
      <trkpt lat="54.379560" lon="9.684774">
        <ele>41.408025</ele>
        <time>2021-04-14T13:33:38.000Z</time>
      </trkpt>
      <trkpt lat="54.379566" lon="9.684801">
        <ele>41.420017</ele>
        <time>2021-04-14T13:33:39.000Z</time>
      </trkpt>
      <trkpt lat="54.379608" lon="9.684929">
        <ele>41.480982</ele>
        <time>2021-04-14T13:33:44.000Z</time>
      </trkpt>
      <trkpt lat="54.379621" lon="9.684976">
        <ele>41.502573</ele>
        <time>2021-04-14T13:33:46.000Z</time>
      </trkpt>
      <trkpt lat="54.379633" lon="9.685046">
        <ele>41.532853</ele>
        <time>2021-04-14T13:33:49.000Z</time>
      </trkpt>
      <trkpt lat="54.379638" lon="9.685065">
        <ele>41.541504</ele>
        <time>2021-04-14T13:33:50.000Z</time>
      </trkpt>
      <trkpt lat="54.379660" lon="9.685207">
        <ele>41.602479</ele>
        <time>2021-04-14T13:33:56.000Z</time>
      </trkpt>
      <trkpt lat="54.379705" lon="9.685315">
        <ele>41.629140</ele>
        <time>2021-04-14T13:34:00.000Z</time>
      </trkpt>
      <trkpt lat="54.379736" lon="9.685346">
        <ele>41.629823</ele>
        <time>2021-04-14T13:34:01.000Z</time>
      </trkpt>
      <trkpt lat="54.379746" lon="9.685399">
        <ele>41.630440</ele>
        <time>2021-04-14T13:34:03.000Z</time>
      </trkpt>
      <trkpt lat="54.379740" lon="9.685407">
        <ele>41.630584</ele>
        <time>2021-04-14T13:34:04.000Z</time>
      </trkpt>
      <trkpt lat="54.379731" lon="9.685412">
        <ele>41.630764</ele>
        <time>2021-04-14T13:34:09.000Z</time>
      </trkpt>
      <trkpt lat="54.379714" lon="9.685429">
        <ele>41.631138</ele>
        <time>2021-04-14T13:34:14.000Z</time>
      </trkpt>
      <trkpt lat="54.379695" lon="9.685455">
        <ele>41.631600</ele>
        <time>2021-04-14T13:34:16.000Z</time>
      </trkpt>
      <trkpt lat="54.379623" lon="9.685529">
        <ele>41.633196</ele>
        <time>2021-04-14T13:34:22.000Z</time>
      </trkpt>
      <trkpt lat="54.379594" lon="9.685551">
        <ele>41.633799</ele>
        <time>2021-04-14T13:34:24.000Z</time>
      </trkpt>
      <trkpt lat="54.379524" lon="9.685594">
        <ele>41.635213</ele>
        <time>2021-04-14T13:34:29.000Z</time>
      </trkpt>
      <trkpt lat="54.379511" lon="9.685596">
        <ele>41.635462</ele>
        <time>2021-04-14T13:34:30.000Z</time>
      </trkpt>
      <trkpt lat="54.379497" lon="9.685601">
        <ele>41.635733</ele>
        <time>2021-04-14T13:34:31.000Z</time>
      </trkpt>
      <trkpt lat="54.379474" lon="9.685601">
        <ele>41.636171</ele>
        <time>2021-04-14T13:34:33.000Z</time>
      </trkpt>
      <trkpt lat="54.379437" lon="9.685623">
        <ele>41.636916</ele>
        <time>2021-04-14T13:34:36.000Z</time>
      </trkpt>
      <trkpt lat="54.379388" lon="9.685687">
        <ele>41.638087</ele>
        <time>2021-04-14T13:34:39.000Z</time>
      </trkpt>
      <trkpt lat="54.379361" lon="9.685706">
        <ele>41.638642</ele>
        <time>2021-04-14T13:34:41.000Z</time>
      </trkpt>
      <trkpt lat="54.379314" lon="9.685788">
        <ele>41.639916</ele>
        <time>2021-04-14T13:34:45.000Z</time>
      </trkpt>
      <trkpt lat="54.379306" lon="9.685820">
        <ele>41.640302</ele>
        <time>2021-04-14T13:34:46.000Z</time>
      </trkpt>
      <trkpt lat="54.379301" lon="9.685857">
        <ele>41.640722</ele>
        <time>2021-04-14T13:34:47.000Z</time>
      </trkpt>
      <trkpt lat="54.379303" lon="9.685958">
        <ele>41.641842</ele>
        <time>2021-04-14T13:34:50.000Z</time>
      </trkpt>
      <trkpt lat="54.379307" lon="9.685986">
        <ele>41.642161</ele>
        <time>2021-04-14T13:34:51.000Z</time>
      </trkpt>
      <trkpt lat="54.379315" lon="9.686045">
        <ele>41.642832</ele>
        <time>2021-04-14T13:34:54.000Z</time>
      </trkpt>
      <trkpt lat="54.379314" lon="9.686046">
        <ele>41.642854</ele>
        <time>2021-04-14T13:34:55.000Z</time>
      </trkpt>
      <trkpt lat="54.379307" lon="9.686026">
        <ele>41.643113</ele>
        <time>2021-04-14T13:34:58.000Z</time>
      </trkpt>
      <trkpt lat="54.379315" lon="9.686036">
        <ele>41.643301</ele>
        <time>2021-04-14T13:35:00.000Z</time>
      </trkpt>
      <trkpt lat="54.379322" lon="9.686057">
        <ele>41.643569</ele>
        <time>2021-04-14T13:35:01.000Z</time>
      </trkpt>
      <trkpt lat="54.379330" lon="9.686077">
        <ele>41.643838</ele>
        <time>2021-04-14T13:35:02.000Z</time>
      </trkpt>
      <trkpt lat="54.379355" lon="9.686162">
        <ele>41.644892</ele>
        <time>2021-04-14T13:35:06.000Z</time>
      </trkpt>
      <trkpt lat="54.379376" lon="9.686252">
        <ele>41.645966</ele>
        <time>2021-04-14T13:35:10.000Z</time>
      </trkpt>
      <trkpt lat="54.379404" lon="9.686354">
        <ele>41.647215</ele>
        <time>2021-04-14T13:35:15.000Z</time>
      </trkpt>
      <trkpt lat="54.379438" lon="9.686459">
        <ele>41.648546</ele>
        <time>2021-04-14T13:35:19.000Z</time>
      </trkpt>
      <trkpt lat="54.379493" lon="9.686578">
        <ele>41.650229</ele>
        <time>2021-04-14T13:35:24.000Z</time>
      </trkpt>
      <trkpt lat="54.379509" lon="9.686626">
        <ele>41.650842</ele>
        <time>2021-04-14T13:35:26.000Z</time>
      </trkpt>
      <trkpt lat="54.379528" lon="9.686722">
        <ele>41.651965</ele>
        <time>2021-04-14T13:35:30.000Z</time>
      </trkpt>
      <trkpt lat="54.379532" lon="9.686746">
        <ele>41.652241</ele>
        <time>2021-04-14T13:35:31.000Z</time>
      </trkpt>
      <trkpt lat="54.379544" lon="9.686790">
        <ele>41.652779</ele>
        <time>2021-04-14T13:35:33.000Z</time>
      </trkpt>
      <trkpt lat="54.379568" lon="9.686855">
        <ele>41.653632</ele>
        <time>2021-04-14T13:35:36.000Z</time>
      </trkpt>
      <trkpt lat="54.379600" lon="9.687041">
        <ele>41.655780</ele>
        <time>2021-04-14T13:35:44.000Z</time>
      </trkpt>
      <trkpt lat="54.379615" lon="9.687142">
        <ele>41.656935</ele>
        <time>2021-04-14T13:35:48.000Z</time>
      </trkpt>
      <trkpt lat="54.379630" lon="9.687252">
        <ele>41.658186</ele>
        <time>2021-04-14T13:35:54.000Z</time>
      </trkpt>
      <trkpt lat="54.379616" lon="9.687280">
        <ele>41.658595</ele>
        <time>2021-04-14T13:35:56.000Z</time>
      </trkpt>
      <trkpt lat="54.379589" lon="9.687324">
        <ele>41.659303</ele>
        <time>2021-04-14T13:36:00.000Z</time>
      </trkpt>
      <trkpt lat="54.379580" lon="9.687339">
        <ele>41.659541</ele>
        <time>2021-04-14T13:36:01.000Z</time>
      </trkpt>
      <trkpt lat="54.379511" lon="9.687449">
        <ele>41.661332</ele>
        <time>2021-04-14T13:36:08.000Z</time>
      </trkpt>
      <trkpt lat="54.379501" lon="9.687492">
        <ele>41.661845</ele>
        <time>2021-04-14T13:36:10.000Z</time>
      </trkpt>
      <trkpt lat="54.379506" lon="9.687539">
        <ele>41.662374</ele>
        <time>2021-04-14T13:36:12.000Z</time>
      </trkpt>
      <trkpt lat="54.379510" lon="9.687564">
        <ele>41.661752</ele>
        <time>2021-04-14T13:36:13.000Z</time>
      </trkpt>
      <trkpt lat="54.379522" lon="9.687611">
        <ele>41.656752</ele>
        <time>2021-04-14T13:36:15.000Z</time>
      </trkpt>
      <trkpt lat="54.379527" lon="9.687636">
        <ele>41.654177</ele>
        <time>2021-04-14T13:36:16.000Z</time>
      </trkpt>
      <trkpt lat="54.379548" lon="9.687701">
        <ele>41.646935</ele>
        <time>2021-04-14T13:36:19.000Z</time>
      </trkpt>
      <trkpt lat="54.379582" lon="9.687850">
        <ele>41.631344</ele>
        <time>2021-04-14T13:36:25.000Z</time>
      </trkpt>
      <trkpt lat="54.379591" lon="9.688043">
        <ele>41.612480</ele>
        <time>2021-04-14T13:36:30.000Z</time>
      </trkpt>
      <trkpt lat="54.379602" lon="9.688109">
        <ele>41.605792</ele>
        <time>2021-04-14T13:36:33.000Z</time>
      </trkpt>
      <trkpt lat="54.379621" lon="9.688163">
        <ele>41.599645</ele>
        <time>2021-04-14T13:36:36.000Z</time>
      </trkpt>
      <trkpt lat="54.379662" lon="9.688318">
        <ele>41.583059</ele>
        <time>2021-04-14T13:36:43.000Z</time>
      </trkpt>
      <trkpt lat="54.379688" lon="9.688464">
        <ele>41.568185</ele>
        <time>2021-04-14T13:36:48.000Z</time>
      </trkpt>
      <trkpt lat="54.379714" lon="9.688550">
        <ele>41.558744</ele>
        <time>2021-04-14T13:36:51.000Z</time>
      </trkpt>
      <trkpt lat="54.379725" lon="9.688611">
        <ele>41.552523</ele>
        <time>2021-04-14T13:36:53.000Z</time>
      </trkpt>
      <trkpt lat="54.379734" lon="9.688660">
        <ele>41.547517</ele>
        <time>2021-04-14T13:36:55.000Z</time>
      </trkpt>
      <trkpt lat="54.379788" lon="9.688801">
        <ele>41.531076</ele>
        <time>2021-04-14T13:37:00.000Z</time>
      </trkpt>
      <trkpt lat="54.379796" lon="9.688884">
        <ele>41.522880</ele>
        <time>2021-04-14T13:37:03.000Z</time>
      </trkpt>
      <trkpt lat="54.379806" lon="9.688939">
        <ele>41.517266</ele>
        <time>2021-04-14T13:37:05.000Z</time>
      </trkpt>
      <trkpt lat="54.379843" lon="9.689089">
        <ele>41.501395</ele>
        <time>2021-04-14T13:37:12.000Z</time>
      </trkpt>
      <trkpt lat="54.379858" lon="9.689125">
        <ele>41.497083</ele>
        <time>2021-04-14T13:37:14.000Z</time>
      </trkpt>
      <trkpt lat="54.379879" lon="9.689193">
        <ele>41.489584</ele>
        <time>2021-04-14T13:37:17.000Z</time>
      </trkpt>
      <trkpt lat="54.379883" lon="9.689225">
        <ele>41.486395</ele>
        <time>2021-04-14T13:37:18.000Z</time>
      </trkpt>
      <trkpt lat="54.379931" lon="9.689423">
        <ele>41.465500</ele>
        <time>2021-04-14T13:37:24.000Z</time>
      </trkpt>
      <trkpt lat="54.379950" lon="9.689470">
        <ele>41.459926</ele>
        <time>2021-04-14T13:37:26.000Z</time>
      </trkpt>
      <trkpt lat="54.379977" lon="9.689543">
        <ele>41.451501</ele>
        <time>2021-04-14T13:37:29.000Z</time>
      </trkpt>
      <trkpt lat="54.379980" lon="9.689568">
        <ele>41.449014</ele>
        <time>2021-04-14T13:37:30.000Z</time>
      </trkpt>
      <trkpt lat="54.380010" lon="9.689682">
        <ele>41.436826</ele>
        <time>2021-04-14T13:37:35.000Z</time>
      </trkpt>
      <trkpt lat="54.380031" lon="9.689721">
        <ele>41.431652</ele>
        <time>2021-04-14T13:37:37.000Z</time>
      </trkpt>
      <trkpt lat="54.380032" lon="9.689960">
        <ele>41.408366</ele>
        <time>2021-04-14T13:37:44.000Z</time>
      </trkpt>
      <trkpt lat="54.380041" lon="9.690019">
        <ele>41.402424</ele>
        <time>2021-04-14T13:37:46.000Z</time>
      </trkpt>
      <trkpt lat="54.380050" lon="9.690102">
        <ele>41.394199</ele>
        <time>2021-04-14T13:37:50.000Z</time>
      </trkpt>
      <trkpt lat="54.380053" lon="9.690120">
        <ele>41.392375</ele>
        <time>2021-04-14T13:37:51.000Z</time>
      </trkpt>
      <trkpt lat="54.380075" lon="9.690256">
        <ele>41.378623</ele>
        <time>2021-04-14T13:37:56.000Z</time>
      </trkpt>
      <trkpt lat="54.380095" lon="9.690356">
        <ele>41.368322</ele>
        <time>2021-04-14T13:38:00.000Z</time>
      </trkpt>
      <trkpt lat="54.380101" lon="9.690389">
        <ele>41.364954</ele>
        <time>2021-04-14T13:38:01.000Z</time>
      </trkpt>
      <trkpt lat="54.380117" lon="9.690446">
        <ele>41.371379</ele>
        <time>2021-04-14T13:38:03.000Z</time>
      </trkpt>
      <trkpt lat="54.380119" lon="9.690470">
        <ele>41.379283</ele>
        <time>2021-04-14T13:38:04.000Z</time>
      </trkpt>
      <trkpt lat="54.380130" lon="9.690538">
        <ele>41.402290</ele>
        <time>2021-04-14T13:38:07.000Z</time>
      </trkpt>
      <trkpt lat="54.380126" lon="9.690576">
        <ele>41.414878</ele>
        <time>2021-04-14T13:38:08.000Z</time>
      </trkpt>
      <trkpt lat="54.380132" lon="9.690596">
        <ele>41.422212</ele>
        <time>2021-04-14T13:38:09.000Z</time>
      </trkpt>
      <trkpt lat="54.380165" lon="9.690718">
        <ele>41.466063</ele>
        <time>2021-04-14T13:38:14.000Z</time>
      </trkpt>
      <trkpt lat="54.380170" lon="9.690771">
        <ele>41.483566</ele>
        <time>2021-04-14T13:38:16.000Z</time>
      </trkpt>
      <trkpt lat="54.380196" lon="9.690833">
        <ele>41.508472</ele>
        <time>2021-04-14T13:38:20.000Z</time>
      </trkpt>
      <trkpt lat="54.380257" lon="9.690976">
        <ele>41.566255</ele>
        <time>2021-04-14T13:38:27.000Z</time>
      </trkpt>
      <trkpt lat="54.380297" lon="9.691181">
        <ele>41.636735</ele>
        <time>2021-04-14T13:38:33.000Z</time>
      </trkpt>
      <trkpt lat="54.380307" lon="9.691233">
        <ele>41.654586</ele>
        <time>2021-04-14T13:38:35.000Z</time>
      </trkpt>
      <trkpt lat="54.380335" lon="9.691389">
        <ele>41.707801</ele>
        <time>2021-04-14T13:38:40.000Z</time>
      </trkpt>
      <trkpt lat="54.380338" lon="9.691420">
        <ele>41.718045</ele>
        <time>2021-04-14T13:38:41.000Z</time>
      </trkpt>
      <trkpt lat="54.380341" lon="9.691451">
        <ele>41.728290</ele>
        <time>2021-04-14T13:38:42.000Z</time>
      </trkpt>
      <trkpt lat="54.380361" lon="9.691516">
        <ele>41.752255</ele>
        <time>2021-04-14T13:38:44.000Z</time>
      </trkpt>
      <trkpt lat="54.380381" lon="9.691564">
        <ele>41.771494</ele>
        <time>2021-04-14T13:38:46.000Z</time>
      </trkpt>
      <trkpt lat="54.380411" lon="9.691751">
        <ele>41.834725</ele>
        <time>2021-04-14T13:38:52.000Z</time>
      </trkpt>
      <trkpt lat="54.380431" lon="9.691800">
        <ele>41.854231</ele>
        <time>2021-04-14T13:38:55.000Z</time>
      </trkpt>
      <trkpt lat="54.380442" lon="9.691834">
        <ele>41.866910</ele>
        <time>2021-04-14T13:38:57.000Z</time>
      </trkpt>
      <trkpt lat="54.380452" lon="9.691882">
        <ele>41.883528</ele>
        <time>2021-04-14T13:38:59.000Z</time>
      </trkpt>
      <trkpt lat="54.380462" lon="9.692032">
        <ele>41.932746</ele>
        <time>2021-04-14T13:39:04.000Z</time>
      </trkpt>
      <trkpt lat="54.380496" lon="9.692106">
        <ele>41.963473</ele>
        <time>2021-04-14T13:39:08.000Z</time>
      </trkpt>
      <trkpt lat="54.380510" lon="9.692153">
        <ele>41.980682</ele>
        <time>2021-04-14T13:39:10.000Z</time>
      </trkpt>
      <trkpt lat="54.380556" lon="9.692351">
        <ele>42.050174</ele>
        <time>2021-04-14T13:39:17.000Z</time>
      </trkpt>
      <trkpt lat="54.380557" lon="9.692384">
        <ele>42.060946</ele>
        <time>2021-04-14T13:39:18.000Z</time>
      </trkpt>
      <trkpt lat="54.380594" lon="9.692561">
        <ele>42.122250</ele>
        <time>2021-04-14T13:39:25.000Z</time>
      </trkpt>
      <trkpt lat="54.380626" lon="9.692678">
        <ele>42.164387</ele>
        <time>2021-04-14T13:39:31.000Z</time>
      </trkpt>
      <trkpt lat="54.380624" lon="9.692706">
        <ele>42.173584</ele>
        <time>2021-04-14T13:39:32.000Z</time>
      </trkpt>
      <trkpt lat="54.380628" lon="9.692748">
        <ele>42.187457</ele>
        <time>2021-04-14T13:39:34.000Z</time>
      </trkpt>
      <trkpt lat="54.380648" lon="9.692847">
        <ele>42.221616</ele>
        <time>2021-04-14T13:39:39.000Z</time>
      </trkpt>
      <trkpt lat="54.380675" lon="9.693007">
        <ele>42.275920</ele>
        <time>2021-04-14T13:39:46.000Z</time>
      </trkpt>
      <trkpt lat="54.380678" lon="9.693027">
        <ele>42.282652</ele>
        <time>2021-04-14T13:39:47.000Z</time>
      </trkpt>
      <trkpt lat="54.380708" lon="9.693237">
        <ele>42.353139</ele>
        <time>2021-04-14T13:39:53.000Z</time>
      </trkpt>
      <trkpt lat="54.380717" lon="9.693319">
        <ele>42.266241</ele>
        <time>2021-04-14T13:39:56.000Z</time>
      </trkpt>
      <trkpt lat="54.380737" lon="9.693448">
        <ele>41.892153</ele>
        <time>2021-04-14T13:40:00.000Z</time>
      </trkpt>
      <trkpt lat="54.380744" lon="9.693558">
        <ele>41.582065</ele>
        <time>2021-04-14T13:40:04.000Z</time>
      </trkpt>
      <trkpt lat="54.380745" lon="9.693612">
        <ele>41.430664</ele>
        <time>2021-04-14T13:40:07.000Z</time>
      </trkpt>
      <trkpt lat="54.380746" lon="9.693637">
        <ele>41.360442</ele>
        <time>2021-04-14T13:40:08.000Z</time>
      </trkpt>
      <trkpt lat="54.380760" lon="9.693757">
        <ele>41.017485</ele>
        <time>2021-04-14T13:40:14.000Z</time>
      </trkpt>
      <trkpt lat="54.380761" lon="9.693824">
        <ele>40.829669</ele>
        <time>2021-04-14T13:40:16.000Z</time>
      </trkpt>
      <trkpt lat="54.380759" lon="9.693835">
        <ele>40.797376</ele>
        <time>2021-04-14T13:40:19.000Z</time>
      </trkpt>
      <trkpt lat="54.380719" lon="9.693846">
        <ele>40.602456</ele>
        <time>2021-04-14T13:40:25.000Z</time>
      </trkpt>
      <trkpt lat="54.380714" lon="9.693876">
        <ele>40.515012</ele>
        <time>2021-04-14T13:40:30.000Z</time>
      </trkpt>
      <trkpt lat="54.380721" lon="9.693893">
        <ele>40.456669</ele>
        <time>2021-04-14T13:40:32.000Z</time>
      </trkpt>
      <trkpt lat="54.380756" lon="9.693929">
        <ele>40.260356</ele>
        <time>2021-04-14T13:40:38.000Z</time>
      </trkpt>
      <trkpt lat="54.380765" lon="9.693939">
        <ele>40.208774</ele>
        <time>2021-04-14T13:40:39.000Z</time>
      </trkpt>
      <trkpt lat="54.380898" lon="9.694006">
        <ele>39.541847</ele>
        <time>2021-04-14T13:40:47.000Z</time>
      </trkpt>
      <trkpt lat="54.380953" lon="9.694006">
        <ele>39.277205</ele>
        <time>2021-04-14T13:40:50.000Z</time>
      </trkpt>
      <trkpt lat="54.380972" lon="9.693991">
        <ele>39.176582</ele>
        <time>2021-04-14T13:40:51.000Z</time>
      </trkpt>
      <trkpt lat="54.380999" lon="9.693974">
        <ele>39.038208</ele>
        <time>2021-04-14T13:40:53.000Z</time>
      </trkpt>
      <trkpt lat="54.381028" lon="9.693984">
        <ele>38.895883</ele>
        <time>2021-04-14T13:40:57.000Z</time>
      </trkpt>
      <trkpt lat="54.381040" lon="9.693989">
        <ele>38.836468</ele>
        <time>2021-04-14T13:40:58.000Z</time>
      </trkpt>
      <trkpt lat="54.381053" lon="9.693994">
        <ele>38.772366</ele>
        <time>2021-04-14T13:40:59.000Z</time>
      </trkpt>
      <trkpt lat="54.381085" lon="9.693997">
        <ele>38.618163</ele>
        <time>2021-04-14T13:41:01.000Z</time>
      </trkpt>
      <trkpt lat="54.381157" lon="9.694012">
        <ele>38.269181</ele>
        <time>2021-04-14T13:41:06.000Z</time>
      </trkpt>
      <trkpt lat="54.381211" lon="9.694016">
        <ele>38.009109</ele>
        <time>2021-04-14T13:41:10.000Z</time>
      </trkpt>
      <trkpt lat="54.381219" lon="9.694018">
        <ele>37.970209</ele>
        <time>2021-04-14T13:41:11.000Z</time>
      </trkpt>
      <trkpt lat="54.381241" lon="9.694023">
        <ele>37.863429</ele>
        <time>2021-04-14T13:41:13.000Z</time>
      </trkpt>
      <trkpt lat="54.381305" lon="9.694009">
        <ele>37.552993</ele>
        <time>2021-04-14T13:41:18.000Z</time>
      </trkpt>
      <trkpt lat="54.381312" lon="9.694009">
        <ele>37.519311</ele>
        <time>2021-04-14T13:41:19.000Z</time>
      </trkpt>
      <trkpt lat="54.381324" lon="9.694007">
        <ele>37.461299</ele>
        <time>2021-04-14T13:41:20.000Z</time>
      </trkpt>
      <trkpt lat="54.381359" lon="9.694023">
        <ele>37.287024</ele>
        <time>2021-04-14T13:41:23.000Z</time>
      </trkpt>
      <trkpt lat="54.381420" lon="9.694081">
        <ele>36.951516</ele>
        <time>2021-04-14T13:41:27.000Z</time>
      </trkpt>
      <trkpt lat="54.381558" lon="9.694225">
        <ele>36.174506</ele>
        <time>2021-04-14T13:41:34.000Z</time>
      </trkpt>
      <trkpt lat="54.381588" lon="9.694260">
        <ele>35.999989</ele>
        <time>2021-04-14T13:41:35.000Z</time>
      </trkpt>
      <trkpt lat="54.381655" lon="9.694393">
        <ele>35.507206</ele>
        <time>2021-04-14T13:41:40.000Z</time>
      </trkpt>
      <trkpt lat="54.381663" lon="9.694418">
        <ele>35.427271</ele>
        <time>2021-04-14T13:41:41.000Z</time>
      </trkpt>
      <trkpt lat="54.381687" lon="9.694460">
        <ele>35.262385</ele>
        <time>2021-04-14T13:41:43.000Z</time>
      </trkpt>
      <trkpt lat="54.381711" lon="9.694505">
        <ele>35.091396</ele>
        <time>2021-04-14T13:41:45.000Z</time>
      </trkpt>
      <trkpt lat="54.381723" lon="9.694531">
        <ele>34.998432</ele>
        <time>2021-04-14T13:41:46.000Z</time>
      </trkpt>
      <trkpt lat="54.381740" lon="9.694588">
        <ele>34.818978</ele>
        <time>2021-04-14T13:41:49.000Z</time>
      </trkpt>
      <trkpt lat="54.381746" lon="9.694616">
        <ele>34.735373</ele>
        <time>2021-04-14T13:41:51.000Z</time>
      </trkpt>
      <trkpt lat="54.381748" lon="9.694683">
        <ele>34.547376</ele>
        <time>2021-04-14T13:41:55.000Z</time>
      </trkpt>
      <trkpt lat="54.381775" lon="9.694731">
        <ele>34.360373</ele>
        <time>2021-04-14T13:41:57.000Z</time>
      </trkpt>
      <trkpt lat="54.381810" lon="9.694800">
        <ele>34.103961</ele>
        <time>2021-04-14T13:42:01.000Z</time>
      </trkpt>
      <trkpt lat="54.381842" lon="9.694881">
        <ele>33.829683</ele>
        <time>2021-04-14T13:42:04.000Z</time>
      </trkpt>
      <trkpt lat="54.381901" lon="9.695042">
        <ele>33.309337</ele>
        <time>2021-04-14T13:42:10.000Z</time>
      </trkpt>
      <trkpt lat="54.381915" lon="9.695079">
        <ele>33.189455</ele>
        <time>2021-04-14T13:42:12.000Z</time>
      </trkpt>
      <trkpt lat="54.381965" lon="9.695149">
        <ele>32.888485</ele>
        <time>2021-04-14T13:42:17.000Z</time>
      </trkpt>
      <trkpt lat="54.381996" lon="9.695165">
        <ele>32.737470</ele>
        <time>2021-04-14T13:42:20.000Z</time>
      </trkpt>
      <trkpt lat="54.382006" lon="9.695168">
        <ele>32.690111</ele>
        <time>2021-04-14T13:42:21.000Z</time>
      </trkpt>
      <trkpt lat="54.382034" lon="9.695186">
        <ele>32.550629</ele>
        <time>2021-04-14T13:42:24.000Z</time>
      </trkpt>
      <trkpt lat="54.382037" lon="9.695195">
        <ele>32.522454</ele>
        <time>2021-04-14T13:42:25.000Z</time>
      </trkpt>
      <trkpt lat="54.382045" lon="9.695207">
        <ele>32.472897</ele>
        <time>2021-04-14T13:42:26.000Z</time>
      </trkpt>
      <trkpt lat="54.382068" lon="9.695267">
        <ele>32.277735</ele>
        <time>2021-04-14T13:42:29.000Z</time>
      </trkpt>
      <trkpt lat="54.382158" lon="9.695405">
        <ele>31.714821</ele>
        <time>2021-04-14T13:42:35.000Z</time>
      </trkpt>
      <trkpt lat="54.382279" lon="9.695562">
        <ele>31.007283</ele>
        <time>2021-04-14T13:42:42.000Z</time>
      </trkpt>
      <trkpt lat="54.382402" lon="9.695714">
        <ele>30.300300</ele>
        <time>2021-04-14T13:42:48.000Z</time>
      </trkpt>
      <trkpt lat="54.382455" lon="9.695811">
        <ele>29.938926</ele>
        <time>2021-04-14T13:42:53.000Z</time>
      </trkpt>
      <trkpt lat="54.382519" lon="9.695890">
        <ele>29.571208</ele>
        <time>2021-04-14T13:42:58.000Z</time>
      </trkpt>
      <trkpt lat="54.382535" lon="9.695892">
        <ele>29.496366</ele>
        <time>2021-04-14T13:42:59.000Z</time>
      </trkpt>
      <trkpt lat="54.382541" lon="9.695900">
        <ele>29.460926</ele>
        <time>2021-04-14T13:43:00.000Z</time>
      </trkpt>
      <trkpt lat="54.382567" lon="9.695916">
        <ele>29.332075</ele>
        <time>2021-04-14T13:43:02.000Z</time>
      </trkpt>
      <trkpt lat="54.382598" lon="9.695921">
        <ele>29.186815</ele>
        <time>2021-04-14T13:43:04.000Z</time>
      </trkpt>
      <trkpt lat="54.382610" lon="9.695921">
        <ele>29.130832</ele>
        <time>2021-04-14T13:43:05.000Z</time>
      </trkpt>
      <trkpt lat="54.382612" lon="9.695914">
        <ele>29.109648</ele>
        <time>2021-04-14T13:43:06.000Z</time>
      </trkpt>
      <trkpt lat="54.382617" lon="9.695916">
        <ele>29.085697</ele>
        <time>2021-04-14T13:43:07.000Z</time>
      </trkpt>
      <trkpt lat="54.382645" lon="9.695932">
        <ele>28.948027</ele>
        <time>2021-04-14T13:43:08.000Z</time>
      </trkpt>
      <trkpt lat="54.382686" lon="9.695936">
        <ele>28.756442</ele>
        <time>2021-04-14T13:43:10.000Z</time>
      </trkpt>
      <trkpt lat="54.382747" lon="9.695878">
        <ele>28.431146</ele>
        <time>2021-04-14T13:43:15.000Z</time>
      </trkpt>
      <trkpt lat="54.382831" lon="9.695843">
        <ele>28.027891</ele>
        <time>2021-04-14T13:43:22.000Z</time>
      </trkpt>
      <trkpt lat="54.382953" lon="9.695817">
        <ele>27.454362</ele>
        <time>2021-04-14T13:43:29.000Z</time>
      </trkpt>
      <trkpt lat="54.383025" lon="9.695852">
        <ele>27.105262</ele>
        <time>2021-04-14T13:43:34.000Z</time>
      </trkpt>
      <trkpt lat="54.383123" lon="9.695926">
        <ele>26.605814</ele>
        <time>2021-04-14T13:43:40.000Z</time>
      </trkpt>
      <trkpt lat="54.383143" lon="9.695937">
        <ele>26.507839</ele>
        <time>2021-04-14T13:43:42.000Z</time>
      </trkpt>
      <trkpt lat="54.383208" lon="9.695958">
        <ele>26.199276</ele>
        <time>2021-04-14T13:43:47.000Z</time>
      </trkpt>
      <trkpt lat="54.383301" lon="9.696004">
        <ele>25.747765</ele>
        <time>2021-04-14T13:43:52.000Z</time>
      </trkpt>
      <trkpt lat="54.383318" lon="9.696006">
        <ele>25.668270</ele>
        <time>2021-04-14T13:43:53.000Z</time>
      </trkpt>
      <trkpt lat="54.383373" lon="9.696021">
        <ele>25.408464</ele>
        <time>2021-04-14T13:43:57.000Z</time>
      </trkpt>
      <trkpt lat="54.383430" lon="9.696038">
        <ele>25.261130</ele>
        <time>2021-04-14T13:44:00.000Z</time>
      </trkpt>
      <trkpt lat="54.383441" lon="9.696043">
        <ele>25.243359</ele>
        <time>2021-04-14T13:44:01.000Z</time>
      </trkpt>
      <trkpt lat="54.383505" lon="9.696103">
        <ele>25.129480</ele>
        <time>2021-04-14T13:44:05.000Z</time>
      </trkpt>
      <trkpt lat="54.383545" lon="9.696145">
        <ele>25.056257</ele>
        <time>2021-04-14T13:44:07.000Z</time>
      </trkpt>
      <trkpt lat="54.383562" lon="9.696170">
        <ele>25.021302</ele>
        <time>2021-04-14T13:44:08.000Z</time>
      </trkpt>
      <trkpt lat="54.383668" lon="9.696300">
        <ele>24.817870</ele>
        <time>2021-04-14T13:44:13.000Z</time>
      </trkpt>
      <trkpt lat="54.383681" lon="9.696330">
        <ele>24.783860</ele>
        <time>2021-04-14T13:44:14.000Z</time>
      </trkpt>
      <trkpt lat="54.383735" lon="9.696412">
        <ele>24.671280</ele>
        <time>2021-04-14T13:44:17.000Z</time>
      </trkpt>
      <trkpt lat="54.383764" lon="9.696472">
        <ele>24.600364</ele>
        <time>2021-04-14T13:44:20.000Z</time>
      </trkpt>
      <trkpt lat="54.383856" lon="9.696576">
        <ele>24.428344</ele>
        <time>2021-04-14T13:44:26.000Z</time>
      </trkpt>
      <trkpt lat="54.383965" lon="9.696690">
        <ele>24.229024</ele>
        <time>2021-04-14T13:44:31.000Z</time>
      </trkpt>
      <trkpt lat="54.383981" lon="9.696720">
        <ele>24.192026</ele>
        <time>2021-04-14T13:44:32.000Z</time>
      </trkpt>
      <trkpt lat="54.384015" lon="9.696887">
        <ele>24.031128</ele>
        <time>2021-04-14T13:44:38.000Z</time>
      </trkpt>
      <trkpt lat="54.384019" lon="9.697090">
        <ele>23.846397</ele>
        <time>2021-04-14T13:44:45.000Z</time>
      </trkpt>
      <trkpt lat="54.384021" lon="9.697121">
        <ele>23.818030</ele>
        <time>2021-04-14T13:44:46.000Z</time>
      </trkpt>
      <trkpt lat="54.384031" lon="9.697248">
        <ele>23.701474</ele>
        <time>2021-04-14T13:44:50.000Z</time>
      </trkpt>
      <trkpt lat="54.384036" lon="9.697282">
        <ele>23.669581</ele>
        <time>2021-04-14T13:44:51.000Z</time>
      </trkpt>
      <trkpt lat="54.384046" lon="9.697338">
        <ele>23.616309</ele>
        <time>2021-04-14T13:44:53.000Z</time>
      </trkpt>
      <trkpt lat="54.384087" lon="9.697487">
        <ele>23.466430</ele>
        <time>2021-04-14T13:44:59.000Z</time>
      </trkpt>
      <trkpt lat="54.384103" lon="9.697536">
        <ele>23.415338</ele>
        <time>2021-04-14T13:45:01.000Z</time>
      </trkpt>
      <trkpt lat="54.384126" lon="9.697663">
        <ele>23.294377</ele>
        <time>2021-04-14T13:45:05.000Z</time>
      </trkpt>
      <trkpt lat="54.384163" lon="9.697862">
        <ele>23.104389</ele>
        <time>2021-04-14T13:45:11.000Z</time>
      </trkpt>
      <trkpt lat="54.384219" lon="9.698066">
        <ele>22.899275</ele>
        <time>2021-04-14T13:45:18.000Z</time>
      </trkpt>
      <trkpt lat="54.384248" lon="9.698240">
        <ele>22.734672</ele>
        <time>2021-04-14T13:45:25.000Z</time>
      </trkpt>
      <trkpt lat="54.384296" lon="9.698415">
        <ele>22.558743</ele>
        <time>2021-04-14T13:45:31.000Z</time>
      </trkpt>
      <trkpt lat="54.384320" lon="9.698591">
        <ele>22.645513</ele>
        <time>2021-04-14T13:45:37.000Z</time>
      </trkpt>
      <trkpt lat="54.384318" lon="9.698719">
        <ele>22.773966</ele>
        <time>2021-04-14T13:45:42.000Z</time>
      </trkpt>
      <trkpt lat="54.384309" lon="9.698777">
        <ele>22.834181</ele>
        <time>2021-04-14T13:45:44.000Z</time>
      </trkpt>
      <trkpt lat="54.384251" lon="9.698872">
        <ele>22.972258</ele>
        <time>2021-04-14T13:45:50.000Z</time>
      </trkpt>
      <trkpt lat="54.384219" lon="9.698933">
        <ele>23.054620</ele>
        <time>2021-04-14T13:45:54.000Z</time>
      </trkpt>
      <trkpt lat="54.384169" lon="9.698976">
        <ele>23.150951</ele>
        <time>2021-04-14T13:45:57.000Z</time>
      </trkpt>
      <trkpt lat="54.384092" lon="9.699069">
        <ele>23.313120</ele>
        <time>2021-04-14T13:46:03.000Z</time>
      </trkpt>
      <trkpt lat="54.384081" lon="9.699099">
        <ele>23.348684</ele>
        <time>2021-04-14T13:46:04.000Z</time>
      </trkpt>
      <trkpt lat="54.384065" lon="9.699121">
        <ele>23.383994</ele>
        <time>2021-04-14T13:46:05.000Z</time>
      </trkpt>
      <trkpt lat="54.384040" lon="9.699156">
        <ele>23.439560</ele>
        <time>2021-04-14T13:46:07.000Z</time>
      </trkpt>
      <trkpt lat="54.383949" lon="9.699309">
        <ele>23.658951</ele>
        <time>2021-04-14T13:46:12.000Z</time>
      </trkpt>
      <trkpt lat="54.383874" lon="9.699397">
        <ele>23.815431</ele>
        <time>2021-04-14T13:46:17.000Z</time>
      </trkpt>
      <trkpt lat="54.383827" lon="9.699485">
        <ele>23.935218</ele>
        <time>2021-04-14T13:46:21.000Z</time>
      </trkpt>
      <trkpt lat="54.383792" lon="9.699519">
        <ele>24.004490</ele>
        <time>2021-04-14T13:46:23.000Z</time>
      </trkpt>
      <trkpt lat="54.383779" lon="9.699528">
        <ele>24.028636</ele>
        <time>2021-04-14T13:46:24.000Z</time>
      </trkpt>
      <trkpt lat="54.383745" lon="9.699569">
        <ele>24.100206</ele>
        <time>2021-04-14T13:46:26.000Z</time>
      </trkpt>
      <trkpt lat="54.383691" lon="9.699643">
        <ele>24.219220</ele>
        <time>2021-04-14T13:46:29.000Z</time>
      </trkpt>
      <trkpt lat="54.383619" lon="9.699726">
        <ele>24.368609</ele>
        <time>2021-04-14T13:46:33.000Z</time>
      </trkpt>
      <trkpt lat="54.383569" lon="9.699771">
        <ele>24.465855</ele>
        <time>2021-04-14T13:46:37.000Z</time>
      </trkpt>
      <trkpt lat="54.383477" lon="9.699858">
        <ele>24.646782</ele>
        <time>2021-04-14T13:46:44.000Z</time>
      </trkpt>
      <trkpt lat="54.383462" lon="9.699867">
        <ele>24.674154</ele>
        <time>2021-04-14T13:46:45.000Z</time>
      </trkpt>
      <trkpt lat="54.383418" lon="9.699896">
        <ele>24.755343</ele>
        <time>2021-04-14T13:46:48.000Z</time>
      </trkpt>
      <trkpt lat="54.383391" lon="9.699920">
        <ele>24.807717</ele>
        <time>2021-04-14T13:46:50.000Z</time>
      </trkpt>
      <trkpt lat="54.383326" lon="9.699973">
        <ele>24.931672</ele>
        <time>2021-04-14T13:46:56.000Z</time>
      </trkpt>
      <trkpt lat="54.383308" lon="9.699994">
        <ele>24.969159</ele>
        <time>2021-04-14T13:46:58.000Z</time>
      </trkpt>
      <trkpt lat="54.383238" lon="9.700062">
        <ele>25.107704</ele>
        <time>2021-04-14T13:47:02.000Z</time>
      </trkpt>
      <trkpt lat="54.383204" lon="9.700103">
        <ele>25.179274</ele>
        <time>2021-04-14T13:47:05.000Z</time>
      </trkpt>
      <trkpt lat="54.383166" lon="9.700135">
        <ele>25.252183</ele>
        <time>2021-04-14T13:47:08.000Z</time>
      </trkpt>
      <trkpt lat="54.383056" lon="9.700231">
        <ele>25.464745</ele>
        <time>2021-04-14T13:47:15.000Z</time>
      </trkpt>
      <trkpt lat="54.382949" lon="9.700327">
        <ele>25.610875</ele>
        <time>2021-04-14T13:47:21.000Z</time>
      </trkpt>
      <trkpt lat="54.382917" lon="9.700382">
        <ele>25.609142</ele>
        <time>2021-04-14T13:47:23.000Z</time>
      </trkpt>
      <trkpt lat="54.382848" lon="9.700566">
        <ele>25.604264</ele>
        <time>2021-04-14T13:47:29.000Z</time>
      </trkpt>
      <trkpt lat="54.382839" lon="9.700605">
        <ele>25.603329</ele>
        <time>2021-04-14T13:47:30.000Z</time>
      </trkpt>
      <trkpt lat="54.382775" lon="9.700835">
        <ele>25.597646</ele>
        <time>2021-04-14T13:47:38.000Z</time>
      </trkpt>
      <trkpt lat="54.382739" lon="9.701031">
        <ele>25.593065</ele>
        <time>2021-04-14T13:47:44.000Z</time>
      </trkpt>
      <trkpt lat="54.382729" lon="9.701182">
        <ele>25.589677</ele>
        <time>2021-04-14T13:47:49.000Z</time>
      </trkpt>
      <trkpt lat="54.382721" lon="9.701268">
        <ele>25.587736</ele>
        <time>2021-04-14T13:47:52.000Z</time>
      </trkpt>
      <trkpt lat="54.382694" lon="9.701489">
        <ele>25.582702</ele>
        <time>2021-04-14T13:47:58.000Z</time>
      </trkpt>
      <trkpt lat="54.382688" lon="9.701522">
        <ele>25.581932</ele>
        <time>2021-04-14T13:47:59.000Z</time>
      </trkpt>
      <trkpt lat="54.382713" lon="9.701730">
        <ele>25.577197</ele>
        <time>2021-04-14T13:48:07.000Z</time>
      </trkpt>
      <trkpt lat="54.382731" lon="9.701858">
        <ele>25.574262</ele>
        <time>2021-04-14T13:48:12.000Z</time>
      </trkpt>
      <trkpt lat="54.382740" lon="9.701924">
        <ele>25.572751</ele>
        <time>2021-04-14T13:48:14.000Z</time>
      </trkpt>
      <trkpt lat="54.382734" lon="9.701957">
        <ele>25.571980</ele>
        <time>2021-04-14T13:48:15.000Z</time>
      </trkpt>
      <trkpt lat="54.382734" lon="9.702050">
        <ele>25.569907</ele>
        <time>2021-04-14T13:48:18.000Z</time>
      </trkpt>
      <trkpt lat="54.382744" lon="9.702076">
        <ele>25.569213</ele>
        <time>2021-04-14T13:48:19.000Z</time>
      </trkpt>
      <trkpt lat="54.382795" lon="9.702246">
        <ele>25.564950</ele>
        <time>2021-04-14T13:48:26.000Z</time>
      </trkpt>
      <trkpt lat="54.382817" lon="9.702386">
        <ele>25.561718</ele>
        <time>2021-04-14T13:48:31.000Z</time>
      </trkpt>
      <trkpt lat="54.382820" lon="9.702418">
        <ele>25.560995</ele>
        <time>2021-04-14T13:48:32.000Z</time>
      </trkpt>
      <trkpt lat="54.382876" lon="9.702642">
        <ele>25.555561</ele>
        <time>2021-04-14T13:48:39.000Z</time>
      </trkpt>
      <trkpt lat="54.382878" lon="9.702731">
        <ele>25.553576</ele>
        <time>2021-04-14T13:48:42.000Z</time>
      </trkpt>
      <trkpt lat="54.382885" lon="9.702838">
        <ele>25.551175</ele>
        <time>2021-04-14T13:48:46.000Z</time>
      </trkpt>
      <trkpt lat="54.382883" lon="9.702862">
        <ele>25.550635</ele>
        <time>2021-04-14T13:48:47.000Z</time>
      </trkpt>
      <trkpt lat="54.382877" lon="9.703038">
        <ele>25.546705</ele>
        <time>2021-04-14T13:48:53.000Z</time>
      </trkpt>
      <trkpt lat="54.382898" lon="9.703132">
        <ele>25.544461</ele>
        <time>2021-04-14T13:48:56.000Z</time>
      </trkpt>
      <trkpt lat="54.382889" lon="9.703283">
        <ele>25.635321</ele>
        <time>2021-04-14T13:49:01.000Z</time>
      </trkpt>
      <trkpt lat="54.382872" lon="9.703439">
        <ele>25.777063</ele>
        <time>2021-04-14T13:49:07.000Z</time>
      </trkpt>
      <trkpt lat="54.382834" lon="9.703667">
        <ele>25.988865</ele>
        <time>2021-04-14T13:49:15.000Z</time>
      </trkpt>
      <trkpt lat="54.382794" lon="9.703743">
        <ele>26.080353</ele>
        <time>2021-04-14T13:49:19.000Z</time>
      </trkpt>
      <trkpt lat="54.382782" lon="9.703778">
        <ele>26.116626</ele>
        <time>2021-04-14T13:49:21.000Z</time>
      </trkpt>
      <trkpt lat="54.382777" lon="9.703791">
        <ele>26.130540</ele>
        <time>2021-04-14T13:49:22.000Z</time>
      </trkpt>
      <trkpt lat="54.382714" lon="9.703907">
        <ele>26.272200</ele>
        <time>2021-04-14T13:49:29.000Z</time>
      </trkpt>
      <trkpt lat="54.382588" lon="9.704088">
        <ele>26.524132</ele>
        <time>2021-04-14T13:49:40.000Z</time>
      </trkpt>
      <trkpt lat="54.382474" lon="9.704220">
        <ele>26.734994</ele>
        <time>2021-04-14T13:49:48.000Z</time>
      </trkpt>
      <trkpt lat="54.382368" lon="9.704318">
        <ele>26.919618</ele>
        <time>2021-04-14T13:49:56.000Z</time>
      </trkpt>
      <trkpt lat="54.382336" lon="9.704343">
        <ele>26.973533</ele>
        <time>2021-04-14T13:49:58.000Z</time>
      </trkpt>
      <trkpt lat="54.382230" lon="9.704434">
        <ele>27.155276</ele>
        <time>2021-04-14T13:50:05.000Z</time>
      </trkpt>
      <trkpt lat="54.382201" lon="9.704468">
        <ele>27.209128</ele>
        <time>2021-04-14T13:50:07.000Z</time>
      </trkpt>
      <trkpt lat="54.382158" lon="9.704507">
        <ele>27.283705</ele>
        <time>2021-04-14T13:50:10.000Z</time>
      </trkpt>
      <trkpt lat="54.382086" lon="9.704597">
        <ele>27.420281</ele>
        <time>2021-04-14T13:50:17.000Z</time>
      </trkpt>
      <trkpt lat="54.381994" lon="9.704732">
        <ele>27.605871</ele>
        <time>2021-04-14T13:50:25.000Z</time>
      </trkpt>
      <trkpt lat="54.381931" lon="9.704871">
        <ele>27.763180</ele>
        <time>2021-04-14T13:50:31.000Z</time>
      </trkpt>
      <trkpt lat="54.381927" lon="9.705075">
        <ele>27.945480</ele>
        <time>2021-04-14T13:50:37.000Z</time>
      </trkpt>
      <trkpt lat="54.381929" lon="9.705152">
        <ele>28.014319</ele>
        <time>2021-04-14T13:50:39.000Z</time>
      </trkpt>
      <trkpt lat="54.381934" lon="9.705221">
        <ele>28.076420</ele>
        <time>2021-04-14T13:50:41.000Z</time>
      </trkpt>
      <trkpt lat="54.381944" lon="9.705282">
        <ele>28.133018</ele>
        <time>2021-04-14T13:50:43.000Z</time>
      </trkpt>
      <trkpt lat="54.381970" lon="9.705499">
        <ele>28.296268</ele>
        <time>2021-04-14T13:50:50.000Z</time>
      </trkpt>
      <trkpt lat="54.382006" lon="9.705658">
        <ele>28.267753</ele>
        <time>2021-04-14T13:50:55.000Z</time>
      </trkpt>
      <trkpt lat="54.382020" lon="9.705714">
        <ele>28.257567</ele>
        <time>2021-04-14T13:50:57.000Z</time>
      </trkpt>
      <trkpt lat="54.382055" lon="9.705846">
        <ele>28.233323</ele>
        <time>2021-04-14T13:51:02.000Z</time>
      </trkpt>
      <trkpt lat="54.382059" lon="9.705896">
        <ele>28.224887</ele>
        <time>2021-04-14T13:51:04.000Z</time>
      </trkpt>
      <trkpt lat="54.382057" lon="9.705922">
        <ele>28.220503</ele>
        <time>2021-04-14T13:51:05.000Z</time>
      </trkpt>
      <trkpt lat="54.382062" lon="9.705972">
        <ele>28.212023</ele>
        <time>2021-04-14T13:51:07.000Z</time>
      </trkpt>
      <trkpt lat="54.382062" lon="9.706021">
        <ele>28.203833</ele>
        <time>2021-04-14T13:51:09.000Z</time>
      </trkpt>
      <trkpt lat="54.382076" lon="9.706074">
        <ele>28.194105</ele>
        <time>2021-04-14T13:51:11.000Z</time>
      </trkpt>
      <trkpt lat="54.382148" lon="9.706180">
        <ele>28.166884</ele>
        <time>2021-04-14T13:51:15.000Z</time>
      </trkpt>
      <trkpt lat="54.382148" lon="9.706207">
        <ele>28.162371</ele>
        <time>2021-04-14T13:51:16.000Z</time>
      </trkpt>
      <trkpt lat="54.382173" lon="9.706308">
        <ele>28.144027</ele>
        <time>2021-04-14T13:51:21.000Z</time>
      </trkpt>
      <trkpt lat="54.382253" lon="9.706515">
        <ele>28.102501</ele>
        <time>2021-04-14T13:51:30.000Z</time>
      </trkpt>
      <trkpt lat="54.382274" lon="9.706688">
        <ele>28.072962</ele>
        <time>2021-04-14T13:51:36.000Z</time>
      </trkpt>
      <trkpt lat="54.382316" lon="9.706821">
        <ele>28.047673</ele>
        <time>2021-04-14T13:51:42.000Z</time>
      </trkpt>
      <trkpt lat="54.382305" lon="9.706833">
        <ele>28.043932</ele>
        <time>2021-04-14T13:51:43.000Z</time>
      </trkpt>
      <trkpt lat="54.382240" lon="9.706894">
        <ele>28.022671</ele>
        <time>2021-04-14T13:51:48.000Z</time>
      </trkpt>
      <trkpt lat="54.382162" lon="9.706971">
        <ele>27.996848</ele>
        <time>2021-04-14T13:51:54.000Z</time>
      </trkpt>
      <trkpt lat="54.382152" lon="9.706979">
        <ele>27.993681</ele>
        <time>2021-04-14T13:51:55.000Z</time>
      </trkpt>
      <trkpt lat="54.382061" lon="9.707087">
        <ele>27.961931</ele>
        <time>2021-04-14T13:52:02.000Z</time>
      </trkpt>
      <trkpt lat="54.382047" lon="9.707098">
        <ele>27.957512</ele>
        <time>2021-04-14T13:52:03.000Z</time>
      </trkpt>
      <trkpt lat="54.382019" lon="9.707129">
        <ele>27.947950</ele>
        <time>2021-04-14T13:52:05.000Z</time>
      </trkpt>
      <trkpt lat="54.381943" lon="9.707213">
        <ele>27.922008</ele>
        <time>2021-04-14T13:52:10.000Z</time>
      </trkpt>
      <trkpt lat="54.381825" lon="9.707286">
        <ele>27.886009</ele>
        <time>2021-04-14T13:52:17.000Z</time>
      </trkpt>
      <trkpt lat="54.381683" lon="9.707299">
        <ele>27.845195</ele>
        <time>2021-04-14T13:52:25.000Z</time>
      </trkpt>
      <trkpt lat="54.381653" lon="9.707278">
        <ele>27.835896</ele>
        <time>2021-04-14T13:52:27.000Z</time>
      </trkpt>
      <trkpt lat="54.381577" lon="9.707229">
        <ele>27.812596</ele>
        <time>2021-04-14T13:52:32.000Z</time>
      </trkpt>
      <trkpt lat="54.381454" lon="9.707172">
        <ele>27.785482</ele>
        <time>2021-04-14T13:52:39.000Z</time>
      </trkpt>
      <trkpt lat="54.381430" lon="9.707161">
        <ele>27.785482</ele>
        <time>2021-04-14T13:52:41.000Z</time>
      </trkpt>
      <trkpt lat="54.381380" lon="9.707194">
        <ele>27.785482</ele>
        <time>2021-04-14T13:52:45.000Z</time>
      </trkpt>
      <trkpt lat="54.381292" lon="9.707299">
        <ele>27.785482</ele>
        <time>2021-04-14T13:52:52.000Z</time>
      </trkpt>
      <trkpt lat="54.381209" lon="9.707387">
        <ele>27.785482</ele>
        <time>2021-04-14T13:52:58.000Z</time>
      </trkpt>
      <trkpt lat="54.381149" lon="9.707394">
        <ele>27.785482</ele>
        <time>2021-04-14T13:53:02.000Z</time>
      </trkpt>
      <trkpt lat="54.381139" lon="9.707370">
        <ele>27.785482</ele>
        <time>2021-04-14T13:53:03.000Z</time>
      </trkpt>
      <trkpt lat="54.381061" lon="9.707173">
        <ele>27.785482</ele>
        <time>2021-04-14T13:53:11.000Z</time>
      </trkpt>
      <trkpt lat="54.381038" lon="9.707120">
        <ele>27.785482</ele>
        <time>2021-04-14T13:53:13.000Z</time>
      </trkpt>
      <trkpt lat="54.380998" lon="9.707040">
        <ele>27.785482</ele>
        <time>2021-04-14T13:53:17.000Z</time>
      </trkpt>
      <trkpt lat="54.380988" lon="9.707037">
        <ele>27.785482</ele>
        <time>2021-04-14T13:53:18.000Z</time>
      </trkpt>
      <trkpt lat="54.380936" lon="9.707047">
        <ele>27.785482</ele>
        <time>2021-04-14T13:53:22.000Z</time>
      </trkpt>
      <trkpt lat="54.380921" lon="9.707049">
        <ele>27.785482</ele>
        <time>2021-04-14T13:53:23.000Z</time>
      </trkpt>
      <trkpt lat="54.380893" lon="9.707061">
        <ele>27.785482</ele>
        <time>2021-04-14T13:53:25.000Z</time>
      </trkpt>
      <trkpt lat="54.380756" lon="9.707149">
        <ele>27.785482</ele>
        <time>2021-04-14T13:53:34.000Z</time>
      </trkpt>
      <trkpt lat="54.380724" lon="9.707152">
        <ele>27.785482</ele>
        <time>2021-04-14T13:53:36.000Z</time>
      </trkpt>
      <trkpt lat="54.380676" lon="9.707116">
        <ele>27.785482</ele>
        <time>2021-04-14T13:53:39.000Z</time>
      </trkpt>
      <trkpt lat="54.380628" lon="9.707079">
        <ele>27.785482</ele>
        <time>2021-04-14T13:53:43.000Z</time>
      </trkpt>
      <trkpt lat="54.380615" lon="9.707082">
        <ele>27.785482</ele>
        <time>2021-04-14T13:53:44.000Z</time>
      </trkpt>
      <trkpt lat="54.380544" lon="9.707094">
        <ele>27.785482</ele>
        <time>2021-04-14T13:53:49.000Z</time>
      </trkpt>
      <trkpt lat="54.380438" lon="9.707116">
        <ele>27.785482</ele>
        <time>2021-04-14T13:53:57.000Z</time>
      </trkpt>
      <trkpt lat="54.380396" lon="9.707146">
        <ele>27.785482</ele>
        <time>2021-04-14T13:54:00.000Z</time>
      </trkpt>
      <trkpt lat="54.380331" lon="9.707162">
        <ele>27.785482</ele>
        <time>2021-04-14T13:54:04.000Z</time>
      </trkpt>
      <trkpt lat="54.380237" lon="9.707175">
        <ele>27.785482</ele>
        <time>2021-04-14T13:54:11.000Z</time>
      </trkpt>
      <trkpt lat="54.380151" lon="9.707218">
        <ele>27.785482</ele>
        <time>2021-04-14T13:54:18.000Z</time>
      </trkpt>
      <trkpt lat="54.380043" lon="9.707246">
        <ele>27.785482</ele>
        <time>2021-04-14T13:54:25.000Z</time>
      </trkpt>
      <trkpt lat="54.379998" lon="9.707269">
        <ele>27.785482</ele>
        <time>2021-04-14T13:54:28.000Z</time>
      </trkpt>
      <trkpt lat="54.379937" lon="9.707314">
        <ele>27.785482</ele>
        <time>2021-04-14T13:54:32.000Z</time>
      </trkpt>
      <trkpt lat="54.379888" lon="9.707315">
        <ele>27.785482</ele>
        <time>2021-04-14T13:54:35.000Z</time>
      </trkpt>
      <trkpt lat="54.379861" lon="9.707282">
        <ele>27.785482</ele>
        <time>2021-04-14T13:54:37.000Z</time>
      </trkpt>
      <trkpt lat="54.379754" lon="9.707160">
        <ele>27.785482</ele>
        <time>2021-04-14T13:54:44.000Z</time>
      </trkpt>
    </trkseg>
  </trk>
</gpx>